<?xml version="1.0" encoding="UTF-8" standalone="no" ?>
<gpx xmlns="http://www.topografix.com/GPX/1/1" xmlns:xsi="http://www.w3.org/2001/XMLSchema-instance" xsi:schemaLocation="http://www.topografix.com/GPX/1/1 http://www.topografix.com/GPX/1/1/gpx.xsd" version="1.1" creator="VisuGPX - https://www.visugpx.com">
  <metadata>
    <name>83-M-Les Arcs         </name>
    <desc><![CDATA[83-M-Les Arcs : l'Apie de Raybaud - Lambiscoti]]></desc>
  </metadata>
  <trk>
    <name><![CDATA[2019-01-09-M-Les Arcs - l'Apie de Raybaud - Lambiscoti]]></name>
    <trkseg>
      <trkpt lat="43.43469" lon="6.51079">
        <ele>37.5</ele>
        <time>2019-01-09T13:14:51Z</time>
      </trkpt>
      <trkpt lat="43.43459" lon="6.51079">
        <ele>37.7</ele>
        <time>2019-01-09T13:14:51Z</time>
      </trkpt>
      <trkpt lat="43.43449" lon="6.51077">
        <ele>38.1</ele>
        <time>2019-01-09T13:14:51Z</time>
      </trkpt>
      <trkpt lat="43.43441" lon="6.51075">
        <ele>38.8</ele>
        <time>2019-01-09T13:14:51Z</time>
      </trkpt>
      <trkpt lat="43.43431" lon="6.51072">
        <ele>39.5</ele>
        <time>2019-01-09T13:14:51Z</time>
      </trkpt>
      <trkpt lat="43.43424" lon="6.51062">
        <ele>41.6</ele>
        <time>2019-01-09T13:14:51Z</time>
      </trkpt>
      <trkpt lat="43.43417" lon="6.5105">
        <ele>44.7</ele>
        <time>2019-01-09T13:14:51Z</time>
      </trkpt>
      <trkpt lat="43.43408" lon="6.51045">
        <ele>45.7</ele>
        <time>2019-01-09T13:14:51Z</time>
      </trkpt>
      <trkpt lat="43.43401" lon="6.51041">
        <ele>46.3</ele>
        <time>2019-01-09T13:14:51Z</time>
      </trkpt>
      <trkpt lat="43.43388" lon="6.51039">
        <ele>46.2</ele>
        <time>2019-01-09T13:14:51Z</time>
      </trkpt>
      <trkpt lat="43.43378" lon="6.51039">
        <ele>46.2</ele>
        <time>2019-01-09T13:14:51Z</time>
      </trkpt>
      <trkpt lat="43.43367" lon="6.51031">
        <ele>47.6</ele>
        <time>2019-01-09T13:14:51Z</time>
      </trkpt>
      <trkpt lat="43.43356" lon="6.51025">
        <ele>48.4</ele>
        <time>2019-01-09T13:14:51Z</time>
      </trkpt>
      <trkpt lat="43.43345" lon="6.51024">
        <ele>48.3</ele>
        <time>2019-01-09T13:14:51Z</time>
      </trkpt>
      <trkpt lat="43.43334" lon="6.51026">
        <ele>47.4</ele>
        <time>2019-01-09T13:14:51Z</time>
      </trkpt>
      <trkpt lat="43.43324" lon="6.51028">
        <ele>46.3</ele>
        <time>2019-01-09T13:14:51Z</time>
      </trkpt>
      <trkpt lat="43.43313" lon="6.51031">
        <ele>44.6</ele>
        <time>2019-01-09T13:14:51Z</time>
      </trkpt>
      <trkpt lat="43.43303" lon="6.51037">
        <ele>42.7</ele>
        <time>2019-01-09T13:14:51Z</time>
      </trkpt>
      <trkpt lat="43.43293" lon="6.51042">
        <ele>40.9</ele>
        <time>2019-01-09T13:14:51Z</time>
      </trkpt>
      <trkpt lat="43.43286" lon="6.51043">
        <ele>40.3</ele>
        <time>2019-01-09T13:14:51Z</time>
      </trkpt>
      <trkpt lat="43.43279" lon="6.51045">
        <ele>39.2</ele>
        <time>2019-01-09T13:14:51Z</time>
      </trkpt>
      <trkpt lat="43.43271" lon="6.51049">
        <ele>37.7</ele>
        <time>2019-01-09T13:14:51Z</time>
      </trkpt>
      <trkpt lat="43.43264" lon="6.51051">
        <ele>36.9</ele>
        <time>2019-01-09T13:14:51Z</time>
      </trkpt>
      <trkpt lat="43.43255" lon="6.5105">
        <ele>36.5</ele>
        <time>2019-01-09T13:14:51Z</time>
      </trkpt>
      <trkpt lat="43.43247" lon="6.5105">
        <ele>36</ele>
        <time>2019-01-09T13:14:51Z</time>
      </trkpt>
      <trkpt lat="43.43245" lon="6.51035">
        <ele>38.3</ele>
        <time>2019-01-09T13:14:51Z</time>
      </trkpt>
      <trkpt lat="43.43243" lon="6.51026">
        <ele>39.8</ele>
        <time>2019-01-09T13:14:51Z</time>
      </trkpt>
      <trkpt lat="43.4324" lon="6.51017">
        <ele>41.2</ele>
        <time>2019-01-09T13:14:51Z</time>
      </trkpt>
      <trkpt lat="43.43238" lon="6.51004">
        <ele>42.9</ele>
        <time>2019-01-09T13:14:51Z</time>
      </trkpt>
      <trkpt lat="43.43234" lon="6.50994">
        <ele>44.1</ele>
        <time>2019-01-09T13:14:51Z</time>
      </trkpt>
      <trkpt lat="43.43233" lon="6.50981">
        <ele>46</ele>
        <time>2019-01-09T13:14:51Z</time>
      </trkpt>
      <trkpt lat="43.43233" lon="6.50968">
        <ele>47.9</ele>
        <time>2019-01-09T13:14:51Z</time>
      </trkpt>
      <trkpt lat="43.43232" lon="6.50954">
        <ele>49.7</ele>
        <time>2019-01-09T13:14:51Z</time>
      </trkpt>
      <trkpt lat="43.43231" lon="6.50942">
        <ele>51.5</ele>
        <time>2019-01-09T13:14:51Z</time>
      </trkpt>
      <trkpt lat="43.43231" lon="6.5093">
        <ele>53.2</ele>
        <time>2019-01-09T13:14:51Z</time>
      </trkpt>
      <trkpt lat="43.43229" lon="6.50915">
        <ele>54.9</ele>
        <time>2019-01-09T13:14:51Z</time>
      </trkpt>
      <trkpt lat="43.43229" lon="6.50903">
        <ele>55</ele>
        <time>2019-01-09T13:14:51Z</time>
      </trkpt>
      <trkpt lat="43.43231" lon="6.50891">
        <ele>55.6</ele>
        <time>2019-01-09T13:14:51Z</time>
      </trkpt>
      <trkpt lat="43.43231" lon="6.50877">
        <ele>56.1</ele>
        <time>2019-01-09T13:14:51Z</time>
      </trkpt>
      <trkpt lat="43.43232" lon="6.50863">
        <ele>56.5</ele>
        <time>2019-01-09T13:14:51Z</time>
      </trkpt>
      <trkpt lat="43.43234" lon="6.50851">
        <ele>57.2</ele>
        <time>2019-01-09T13:14:51Z</time>
      </trkpt>
      <trkpt lat="43.43234" lon="6.50838">
        <ele>57.6</ele>
        <time>2019-01-09T13:14:51Z</time>
      </trkpt>
      <trkpt lat="43.43235" lon="6.50823">
        <ele>58.6</ele>
        <time>2019-01-09T13:14:51Z</time>
      </trkpt>
      <trkpt lat="43.43236" lon="6.50809">
        <ele>59.6</ele>
        <time>2019-01-09T13:14:51Z</time>
      </trkpt>
      <trkpt lat="43.43235" lon="6.50794">
        <ele>60.2</ele>
        <time>2019-01-09T13:14:51Z</time>
      </trkpt>
      <trkpt lat="43.43231" lon="6.50781">
        <ele>60.2</ele>
        <time>2019-01-09T13:14:51Z</time>
      </trkpt>
      <trkpt lat="43.43223" lon="6.50715">
        <ele>26.2</ele>
        <time>2019-01-09T13:14:52Z</time>
      </trkpt>
      <trkpt lat="43.43226" lon="6.50699">
        <ele>26.4</ele>
        <time>2019-01-09T13:15:07Z</time>
      </trkpt>
      <trkpt lat="43.43217" lon="6.50681">
        <ele>26.4</ele>
        <time>2019-01-09T13:15:21Z</time>
      </trkpt>
      <trkpt lat="43.43214" lon="6.50669">
        <ele>26.3</ele>
        <time>2019-01-09T13:15:32Z</time>
      </trkpt>
      <trkpt lat="43.43206" lon="6.50641">
        <ele>26</ele>
        <time>2019-01-09T13:15:49Z</time>
      </trkpt>
      <trkpt lat="43.43204" lon="6.50626">
        <ele>25.9</ele>
        <time>2019-01-09T13:15:59Z</time>
      </trkpt>
      <trkpt lat="43.43199" lon="6.50613">
        <ele>25.7</ele>
        <time>2019-01-09T13:16:08Z</time>
      </trkpt>
      <trkpt lat="43.43194" lon="6.50602">
        <ele>25.5</ele>
        <time>2019-01-09T13:16:14Z</time>
      </trkpt>
      <trkpt lat="43.43189" lon="6.5059">
        <ele>25.4</ele>
        <time>2019-01-09T13:16:19Z</time>
      </trkpt>
      <trkpt lat="43.43186" lon="6.50578">
        <ele>25</ele>
        <time>2019-01-09T13:16:28Z</time>
      </trkpt>
      <trkpt lat="43.43181" lon="6.50567">
        <ele>24.8</ele>
        <time>2019-01-09T13:16:37Z</time>
      </trkpt>
      <trkpt lat="43.43177" lon="6.50555">
        <ele>25.6</ele>
        <time>2019-01-09T13:16:54Z</time>
      </trkpt>
      <trkpt lat="43.43174" lon="6.50542">
        <ele>26.2</ele>
        <time>2019-01-09T13:17:04Z</time>
      </trkpt>
      <trkpt lat="43.43174" lon="6.50529">
        <ele>26.5</ele>
        <time>2019-01-09T13:17:11Z</time>
      </trkpt>
      <trkpt lat="43.43171" lon="6.50517">
        <ele>26.6</ele>
        <time>2019-01-09T13:17:18Z</time>
      </trkpt>
      <trkpt lat="43.43165" lon="6.50506">
        <ele>26.7</ele>
        <time>2019-01-09T13:17:29Z</time>
      </trkpt>
      <trkpt lat="43.4316" lon="6.50494">
        <ele>26.6</ele>
        <time>2019-01-09T13:17:40Z</time>
      </trkpt>
      <trkpt lat="43.43161" lon="6.50476">
        <ele>26.5</ele>
        <time>2019-01-09T13:17:49Z</time>
      </trkpt>
      <trkpt lat="43.43152" lon="6.50471">
        <ele>26.5</ele>
        <time>2019-01-09T13:17:58Z</time>
      </trkpt>
      <trkpt lat="43.43154" lon="6.50457">
        <ele>26.5</ele>
        <time>2019-01-09T13:18:07Z</time>
      </trkpt>
      <trkpt lat="43.4315" lon="6.50443">
        <ele>26.5</ele>
        <time>2019-01-09T13:18:22Z</time>
      </trkpt>
      <trkpt lat="43.43142" lon="6.50436">
        <ele>26.5</ele>
        <time>2019-01-09T13:18:29Z</time>
      </trkpt>
      <trkpt lat="43.43135" lon="6.50427">
        <ele>26.5</ele>
        <time>2019-01-09T13:18:42Z</time>
      </trkpt>
      <trkpt lat="43.4313" lon="6.50417">
        <ele>26.7</ele>
        <time>2019-01-09T13:18:53Z</time>
      </trkpt>
      <trkpt lat="43.43127" lon="6.50404">
        <ele>27.4</ele>
        <time>2019-01-09T13:19:07Z</time>
      </trkpt>
      <trkpt lat="43.43119" lon="6.50398">
        <ele>28</ele>
        <time>2019-01-09T13:19:16Z</time>
      </trkpt>
      <trkpt lat="43.4311" lon="6.50389">
        <ele>28.6</ele>
        <time>2019-01-09T13:19:28Z</time>
      </trkpt>
      <trkpt lat="43.43103" lon="6.50381">
        <ele>28.4</ele>
        <time>2019-01-09T13:19:42Z</time>
      </trkpt>
      <trkpt lat="43.43099" lon="6.50368">
        <ele>28</ele>
        <time>2019-01-09T13:19:51Z</time>
      </trkpt>
      <trkpt lat="43.43091" lon="6.50361">
        <ele>27.6</ele>
        <time>2019-01-09T13:19:59Z</time>
      </trkpt>
      <trkpt lat="43.43084" lon="6.50353">
        <ele>27.2</ele>
        <time>2019-01-09T13:20:08Z</time>
      </trkpt>
      <trkpt lat="43.43081" lon="6.5034">
        <ele>27.1</ele>
        <time>2019-01-09T13:20:19Z</time>
      </trkpt>
      <trkpt lat="43.43076" lon="6.50329">
        <ele>27.2</ele>
        <time>2019-01-09T13:20:29Z</time>
      </trkpt>
      <trkpt lat="43.4307" lon="6.5031">
        <ele>27.5</ele>
        <time>2019-01-09T13:20:52Z</time>
      </trkpt>
      <trkpt lat="43.43062" lon="6.50317">
        <ele>27.1</ele>
        <time>2019-01-09T13:21:29Z</time>
      </trkpt>
      <trkpt lat="43.43051" lon="6.5032">
        <ele>27.3</ele>
        <time>2019-01-09T13:21:40Z</time>
      </trkpt>
      <trkpt lat="43.43041" lon="6.5032">
        <ele>27.5</ele>
        <time>2019-01-09T13:21:52Z</time>
      </trkpt>
      <trkpt lat="43.43034" lon="6.50314">
        <ele>27.6</ele>
        <time>2019-01-09T13:22:03Z</time>
      </trkpt>
      <trkpt lat="43.43026" lon="6.50308">
        <ele>27.7</ele>
        <time>2019-01-09T13:22:17Z</time>
      </trkpt>
      <trkpt lat="43.43019" lon="6.50299">
        <ele>27.7</ele>
        <time>2019-01-09T13:22:28Z</time>
      </trkpt>
      <trkpt lat="43.43009" lon="6.50297">
        <ele>27.7</ele>
        <time>2019-01-09T13:22:37Z</time>
      </trkpt>
      <trkpt lat="43.43" lon="6.50293">
        <ele>27.7</ele>
        <time>2019-01-09T13:22:48Z</time>
      </trkpt>
      <trkpt lat="43.4299" lon="6.50291">
        <ele>27.8</ele>
        <time>2019-01-09T13:23:03Z</time>
      </trkpt>
      <trkpt lat="43.42982" lon="6.50283">
        <ele>27.8</ele>
        <time>2019-01-09T13:23:09Z</time>
      </trkpt>
      <trkpt lat="43.42973" lon="6.50279">
        <ele>27.8</ele>
        <time>2019-01-09T13:23:26Z</time>
      </trkpt>
      <trkpt lat="43.42964" lon="6.50284">
        <ele>27.2</ele>
        <time>2019-01-09T13:23:34Z</time>
      </trkpt>
      <trkpt lat="43.42955" lon="6.50283">
        <ele>26.6</ele>
        <time>2019-01-09T13:23:42Z</time>
      </trkpt>
      <trkpt lat="43.42945" lon="6.50279">
        <ele>26.1</ele>
        <time>2019-01-09T13:23:50Z</time>
      </trkpt>
      <trkpt lat="43.42937" lon="6.50276">
        <ele>25.7</ele>
        <time>2019-01-09T13:24:01Z</time>
      </trkpt>
      <trkpt lat="43.42927" lon="6.50272">
        <ele>25.5</ele>
        <time>2019-01-09T13:24:12Z</time>
      </trkpt>
      <trkpt lat="43.42922" lon="6.50261">
        <ele>25.5</ele>
        <time>2019-01-09T13:24:19Z</time>
      </trkpt>
      <trkpt lat="43.42913" lon="6.50256">
        <ele>25.4</ele>
        <time>2019-01-09T13:24:27Z</time>
      </trkpt>
      <trkpt lat="43.42907" lon="6.50246">
        <ele>25.4</ele>
        <time>2019-01-09T13:24:37Z</time>
      </trkpt>
      <trkpt lat="43.42899" lon="6.50238">
        <ele>25.4</ele>
        <time>2019-01-09T13:24:45Z</time>
      </trkpt>
      <trkpt lat="43.42891" lon="6.50233">
        <ele>25.4</ele>
        <time>2019-01-09T13:24:53Z</time>
      </trkpt>
      <trkpt lat="43.42884" lon="6.50223">
        <ele>25.3</ele>
        <time>2019-01-09T13:25:04Z</time>
      </trkpt>
      <trkpt lat="43.42876" lon="6.50215">
        <ele>25.3</ele>
        <time>2019-01-09T13:25:17Z</time>
      </trkpt>
      <trkpt lat="43.4287" lon="6.50205">
        <ele>25</ele>
        <time>2019-01-09T13:25:27Z</time>
      </trkpt>
      <trkpt lat="43.42869" lon="6.50192">
        <ele>24.5</ele>
        <time>2019-01-09T13:25:37Z</time>
      </trkpt>
      <trkpt lat="43.42864" lon="6.50182">
        <ele>24.4</ele>
        <time>2019-01-09T13:25:44Z</time>
      </trkpt>
      <trkpt lat="43.4286" lon="6.5017">
        <ele>24.3</ele>
        <time>2019-01-09T13:25:51Z</time>
      </trkpt>
      <trkpt lat="43.42853" lon="6.50163">
        <ele>24.2</ele>
        <time>2019-01-09T13:25:57Z</time>
      </trkpt>
      <trkpt lat="43.42849" lon="6.50151">
        <ele>24.2</ele>
        <time>2019-01-09T13:26:05Z</time>
      </trkpt>
      <trkpt lat="43.42849" lon="6.50137">
        <ele>24.1</ele>
        <time>2019-01-09T13:26:12Z</time>
      </trkpt>
      <trkpt lat="43.42845" lon="6.50125">
        <ele>24.1</ele>
        <time>2019-01-09T13:26:28Z</time>
      </trkpt>
      <trkpt lat="43.42838" lon="6.50117">
        <ele>24.3</ele>
        <time>2019-01-09T13:26:39Z</time>
      </trkpt>
      <trkpt lat="43.42832" lon="6.50107">
        <ele>24.6</ele>
        <time>2019-01-09T13:26:51Z</time>
      </trkpt>
      <trkpt lat="43.42828" lon="6.50095">
        <ele>24.8</ele>
        <time>2019-01-09T13:27:05Z</time>
      </trkpt>
      <trkpt lat="43.4283" lon="6.50082">
        <ele>25.1</ele>
        <time>2019-01-09T13:27:13Z</time>
      </trkpt>
      <trkpt lat="43.42824" lon="6.50073">
        <ele>25.4</ele>
        <time>2019-01-09T13:27:25Z</time>
      </trkpt>
      <trkpt lat="43.42823" lon="6.5006">
        <ele>25.5</ele>
        <time>2019-01-09T13:27:32Z</time>
      </trkpt>
      <trkpt lat="43.42821" lon="6.50047">
        <ele>25.6</ele>
        <time>2019-01-09T13:27:42Z</time>
      </trkpt>
      <trkpt lat="43.42819" lon="6.50034">
        <ele>25.7</ele>
        <time>2019-01-09T13:27:51Z</time>
      </trkpt>
      <trkpt lat="43.42818" lon="6.5002">
        <ele>25.8</ele>
        <time>2019-01-09T13:27:59Z</time>
      </trkpt>
      <trkpt lat="43.42819" lon="6.50006">
        <ele>25.9</ele>
        <time>2019-01-09T13:28:03Z</time>
      </trkpt>
      <trkpt lat="43.42824" lon="6.49994">
        <ele>26.1</ele>
        <time>2019-01-09T13:28:08Z</time>
      </trkpt>
      <trkpt lat="43.42827" lon="6.49982">
        <ele>26.5</ele>
        <time>2019-01-09T13:28:16Z</time>
      </trkpt>
      <trkpt lat="43.42831" lon="6.49969">
        <ele>27.2</ele>
        <time>2019-01-09T13:28:27Z</time>
      </trkpt>
      <trkpt lat="43.42835" lon="6.49955">
        <ele>27.5</ele>
        <time>2019-01-09T13:28:35Z</time>
      </trkpt>
      <trkpt lat="43.42836" lon="6.49942">
        <ele>27.3</ele>
        <time>2019-01-09T13:28:41Z</time>
      </trkpt>
      <trkpt lat="43.42839" lon="6.49929">
        <ele>27</ele>
        <time>2019-01-09T13:28:50Z</time>
      </trkpt>
      <trkpt lat="43.42844" lon="6.49918">
        <ele>25.7</ele>
        <time>2019-01-09T13:29:04Z</time>
      </trkpt>
      <trkpt lat="43.42849" lon="6.49907">
        <ele>25.3</ele>
        <time>2019-01-09T13:29:12Z</time>
      </trkpt>
      <trkpt lat="43.42856" lon="6.49899">
        <ele>24.9</ele>
        <time>2019-01-09T13:29:28Z</time>
      </trkpt>
      <trkpt lat="43.4286" lon="6.49885">
        <ele>24.9</ele>
        <time>2019-01-09T13:29:42Z</time>
      </trkpt>
      <trkpt lat="43.42863" lon="6.49873">
        <ele>24.8</ele>
        <time>2019-01-09T13:29:51Z</time>
      </trkpt>
      <trkpt lat="43.42873" lon="6.4987">
        <ele>24.7</ele>
        <time>2019-01-09T13:29:59Z</time>
      </trkpt>
      <trkpt lat="43.42873" lon="6.49883">
        <ele>24.7</ele>
        <time>2019-01-09T13:30:26Z</time>
      </trkpt>
      <trkpt lat="43.42881" lon="6.49876">
        <ele>26.1</ele>
        <time>2019-01-09T13:32:13Z</time>
      </trkpt>
      <trkpt lat="43.4289" lon="6.49875">
        <ele>28</ele>
        <time>2019-01-09T13:32:32Z</time>
      </trkpt>
      <trkpt lat="43.42897" lon="6.49865">
        <ele>29.3</ele>
        <time>2019-01-09T13:32:47Z</time>
      </trkpt>
      <trkpt lat="43.42898" lon="6.49878">
        <ele>31.6</ele>
        <time>2019-01-09T13:33:08Z</time>
      </trkpt>
      <trkpt lat="43.42895" lon="6.4989">
        <ele>33.2</ele>
        <time>2019-01-09T13:33:20Z</time>
      </trkpt>
      <trkpt lat="43.42896" lon="6.49903">
        <ele>37.5</ele>
        <time>2019-01-09T13:33:47Z</time>
      </trkpt>
      <trkpt lat="43.42896" lon="6.49915">
        <ele>40.4</ele>
        <time>2019-01-09T13:34:06Z</time>
      </trkpt>
      <trkpt lat="43.42891" lon="6.49931">
        <ele>45.4</ele>
        <time>2019-01-09T13:34:40Z</time>
      </trkpt>
      <trkpt lat="43.429" lon="6.49927">
        <ele>48.5</ele>
        <time>2019-01-09T13:35:01Z</time>
      </trkpt>
      <trkpt lat="43.42905" lon="6.49938">
        <ele>54.7</ele>
        <time>2019-01-09T13:35:42Z</time>
      </trkpt>
      <trkpt lat="43.42914" lon="6.49935">
        <ele>58.1</ele>
        <time>2019-01-09T13:36:09Z</time>
      </trkpt>
      <trkpt lat="43.42924" lon="6.49933">
        <ele>60.4</ele>
        <time>2019-01-09T13:36:29Z</time>
      </trkpt>
      <trkpt lat="43.4292" lon="6.49945">
        <ele>62.9</ele>
        <time>2019-01-09T13:36:48Z</time>
      </trkpt>
      <trkpt lat="43.42917" lon="6.49957">
        <ele>64.4</ele>
        <time>2019-01-09T13:37:04Z</time>
      </trkpt>
      <trkpt lat="43.42911" lon="6.49967">
        <ele>66.2</ele>
        <time>2019-01-09T13:37:17Z</time>
      </trkpt>
      <trkpt lat="43.42908" lon="6.49979">
        <ele>70.1</ele>
        <time>2019-01-09T13:37:49Z</time>
      </trkpt>
      <trkpt lat="43.42905" lon="6.49991">
        <ele>73.2</ele>
        <time>2019-01-09T13:38:06Z</time>
      </trkpt>
      <trkpt lat="43.42901" lon="6.50002">
        <ele>75.3</ele>
        <time>2019-01-09T13:38:21Z</time>
      </trkpt>
      <trkpt lat="43.42897" lon="6.50014">
        <ele>76.8</ele>
        <time>2019-01-09T13:38:43Z</time>
      </trkpt>
      <trkpt lat="43.42902" lon="6.50024">
        <ele>81.6</ele>
        <time>2019-01-09T13:39:20Z</time>
      </trkpt>
      <trkpt lat="43.42911" lon="6.5003">
        <ele>84.5</ele>
        <time>2019-01-09T13:39:38Z</time>
      </trkpt>
      <trkpt lat="43.42916" lon="6.5004">
        <ele>86.7</ele>
        <time>2019-01-09T13:39:56Z</time>
      </trkpt>
      <trkpt lat="43.42922" lon="6.50031">
        <ele>89.5</ele>
        <time>2019-01-09T13:40:21Z</time>
      </trkpt>
      <trkpt lat="43.42931" lon="6.50026">
        <ele>91.1</ele>
        <time>2019-01-09T13:40:33Z</time>
      </trkpt>
      <trkpt lat="43.42939" lon="6.50032">
        <ele>92.8</ele>
        <time>2019-01-09T13:40:46Z</time>
      </trkpt>
      <trkpt lat="43.42942" lon="6.50044">
        <ele>94.8</ele>
        <time>2019-01-09T13:41:01Z</time>
      </trkpt>
      <trkpt lat="43.42952" lon="6.50046">
        <ele>96.5</ele>
        <time>2019-01-09T13:41:14Z</time>
      </trkpt>
      <trkpt lat="43.42961" lon="6.50046">
        <ele>100.3</ele>
        <time>2019-01-09T13:42:44Z</time>
      </trkpt>
      <trkpt lat="43.42966" lon="6.50058">
        <ele>100.4</ele>
        <time>2019-01-09T13:43:08Z</time>
      </trkpt>
      <trkpt lat="43.42958" lon="6.50052">
        <ele>100.7</ele>
        <time>2019-01-09T13:43:30Z</time>
      </trkpt>
      <trkpt lat="43.42966" lon="6.50045">
        <ele>101.1</ele>
        <time>2019-01-09T13:44:20Z</time>
      </trkpt>
      <trkpt lat="43.42974" lon="6.50038">
        <ele>101.7</ele>
        <time>2019-01-09T13:44:31Z</time>
      </trkpt>
      <trkpt lat="43.42983" lon="6.50036">
        <ele>102.7</ele>
        <time>2019-01-09T13:44:49Z</time>
      </trkpt>
      <trkpt lat="43.42992" lon="6.50039">
        <ele>104.4</ele>
        <time>2019-01-09T13:45:04Z</time>
      </trkpt>
      <trkpt lat="43.43001" lon="6.50039">
        <ele>105.5</ele>
        <time>2019-01-09T13:45:13Z</time>
      </trkpt>
      <trkpt lat="43.43009" lon="6.50045">
        <ele>107.1</ele>
        <time>2019-01-09T13:45:24Z</time>
      </trkpt>
      <trkpt lat="43.4301" lon="6.50058">
        <ele>108.9</ele>
        <time>2019-01-09T13:45:38Z</time>
      </trkpt>
      <trkpt lat="43.43007" lon="6.5007">
        <ele>110.1</ele>
        <time>2019-01-09T13:45:47Z</time>
      </trkpt>
      <trkpt lat="43.43015" lon="6.50074">
        <ele>111.3</ele>
        <time>2019-01-09T13:45:58Z</time>
      </trkpt>
      <trkpt lat="43.43025" lon="6.50073">
        <ele>112</ele>
        <time>2019-01-09T13:46:07Z</time>
      </trkpt>
      <trkpt lat="43.43035" lon="6.50073">
        <ele>112.5</ele>
        <time>2019-01-09T13:46:17Z</time>
      </trkpt>
      <trkpt lat="43.43044" lon="6.50071">
        <ele>112.8</ele>
        <time>2019-01-09T13:46:25Z</time>
      </trkpt>
      <trkpt lat="43.43053" lon="6.50069">
        <ele>113</ele>
        <time>2019-01-09T13:46:35Z</time>
      </trkpt>
      <trkpt lat="43.43063" lon="6.50068">
        <ele>113.8</ele>
        <time>2019-01-09T13:46:48Z</time>
      </trkpt>
      <trkpt lat="43.43072" lon="6.5007">
        <ele>114.3</ele>
        <time>2019-01-09T13:46:57Z</time>
      </trkpt>
      <trkpt lat="43.4308" lon="6.50064">
        <ele>114.9</ele>
        <time>2019-01-09T13:47:09Z</time>
      </trkpt>
      <trkpt lat="43.43086" lon="6.50055">
        <ele>115.4</ele>
        <time>2019-01-09T13:47:19Z</time>
      </trkpt>
      <trkpt lat="43.4309" lon="6.50044">
        <ele>116.1</ele>
        <time>2019-01-09T13:47:29Z</time>
      </trkpt>
      <trkpt lat="43.43096" lon="6.50033">
        <ele>117</ele>
        <time>2019-01-09T13:47:38Z</time>
      </trkpt>
      <trkpt lat="43.43101" lon="6.50022">
        <ele>118.1</ele>
        <time>2019-01-09T13:47:48Z</time>
      </trkpt>
      <trkpt lat="43.43106" lon="6.50011">
        <ele>119.1</ele>
        <time>2019-01-09T13:47:58Z</time>
      </trkpt>
      <trkpt lat="43.43114" lon="6.50004">
        <ele>120.3</ele>
        <time>2019-01-09T13:48:10Z</time>
      </trkpt>
      <trkpt lat="43.43123" lon="6.50001">
        <ele>121</ele>
        <time>2019-01-09T13:48:19Z</time>
      </trkpt>
      <trkpt lat="43.43132" lon="6.49997">
        <ele>122.1</ele>
        <time>2019-01-09T13:48:29Z</time>
      </trkpt>
      <trkpt lat="43.43141" lon="6.49992">
        <ele>122.8</ele>
        <time>2019-01-09T13:48:39Z</time>
      </trkpt>
      <trkpt lat="43.43151" lon="6.49991">
        <ele>123.6</ele>
        <time>2019-01-09T13:48:50Z</time>
      </trkpt>
      <trkpt lat="43.43161" lon="6.49991">
        <ele>124.3</ele>
        <time>2019-01-09T13:49:00Z</time>
      </trkpt>
      <trkpt lat="43.43173" lon="6.49989">
        <ele>127</ele>
        <time>2019-01-09T13:49:54Z</time>
      </trkpt>
      <trkpt lat="43.43163" lon="6.49993">
        <ele>127.5</ele>
        <time>2019-01-09T13:50:33Z</time>
      </trkpt>
      <trkpt lat="43.43175" lon="6.50001">
        <ele>128</ele>
        <time>2019-01-09T13:51:06Z</time>
      </trkpt>
      <trkpt lat="43.43185" lon="6.50015">
        <ele>129.1</ele>
        <time>2019-01-09T13:51:20Z</time>
      </trkpt>
      <trkpt lat="43.43189" lon="6.50028">
        <ele>129.8</ele>
        <time>2019-01-09T13:51:29Z</time>
      </trkpt>
      <trkpt lat="43.43199" lon="6.50029">
        <ele>131.2</ele>
        <time>2019-01-09T13:51:40Z</time>
      </trkpt>
      <trkpt lat="43.43207" lon="6.50021">
        <ele>133.1</ele>
        <time>2019-01-09T13:51:51Z</time>
      </trkpt>
      <trkpt lat="43.43216" lon="6.50025">
        <ele>134.9</ele>
        <time>2019-01-09T13:52:04Z</time>
      </trkpt>
      <trkpt lat="43.43223" lon="6.50032">
        <ele>136.1</ele>
        <time>2019-01-09T13:52:11Z</time>
      </trkpt>
      <trkpt lat="43.43227" lon="6.50045">
        <ele>137.8</ele>
        <time>2019-01-09T13:52:23Z</time>
      </trkpt>
      <trkpt lat="43.43231" lon="6.50057">
        <ele>139.1</ele>
        <time>2019-01-09T13:52:34Z</time>
      </trkpt>
      <trkpt lat="43.43237" lon="6.50066">
        <ele>140.6</ele>
        <time>2019-01-09T13:52:49Z</time>
      </trkpt>
      <trkpt lat="43.43246" lon="6.50071">
        <ele>142.2</ele>
        <time>2019-01-09T13:52:59Z</time>
      </trkpt>
      <trkpt lat="43.43254" lon="6.50066">
        <ele>143.9</ele>
        <time>2019-01-09T13:53:10Z</time>
      </trkpt>
      <trkpt lat="43.43263" lon="6.50062">
        <ele>145.6</ele>
        <time>2019-01-09T13:53:22Z</time>
      </trkpt>
      <trkpt lat="43.4327" lon="6.50071">
        <ele>147.9</ele>
        <time>2019-01-09T13:53:37Z</time>
      </trkpt>
      <trkpt lat="43.43277" lon="6.50078">
        <ele>150.3</ele>
        <time>2019-01-09T13:53:51Z</time>
      </trkpt>
      <trkpt lat="43.43286" lon="6.50082">
        <ele>152.7</ele>
        <time>2019-01-09T13:54:05Z</time>
      </trkpt>
      <trkpt lat="43.4329" lon="6.50094">
        <ele>154.3</ele>
        <time>2019-01-09T13:54:18Z</time>
      </trkpt>
      <trkpt lat="43.43295" lon="6.50105">
        <ele>156.2</ele>
        <time>2019-01-09T13:54:34Z</time>
      </trkpt>
      <trkpt lat="43.43304" lon="6.50111">
        <ele>163.2</ele>
        <time>2019-01-09T13:55:37Z</time>
      </trkpt>
      <trkpt lat="43.43312" lon="6.50119">
        <ele>165</ele>
        <time>2019-01-09T13:55:48Z</time>
      </trkpt>
      <trkpt lat="43.43319" lon="6.50127">
        <ele>167.3</ele>
        <time>2019-01-09T13:56:06Z</time>
      </trkpt>
      <trkpt lat="43.43327" lon="6.50134">
        <ele>169.2</ele>
        <time>2019-01-09T13:56:19Z</time>
      </trkpt>
      <trkpt lat="43.43331" lon="6.50146">
        <ele>170.7</ele>
        <time>2019-01-09T13:56:30Z</time>
      </trkpt>
      <trkpt lat="43.43335" lon="6.50157">
        <ele>172.4</ele>
        <time>2019-01-09T13:56:42Z</time>
      </trkpt>
      <trkpt lat="43.4334" lon="6.50168">
        <ele>173.9</ele>
        <time>2019-01-09T13:56:54Z</time>
      </trkpt>
      <trkpt lat="43.4334" lon="6.50181">
        <ele>174.9</ele>
        <time>2019-01-09T13:57:05Z</time>
      </trkpt>
      <trkpt lat="43.43338" lon="6.50193">
        <ele>176.1</ele>
        <time>2019-01-09T13:57:16Z</time>
      </trkpt>
      <trkpt lat="43.4334" lon="6.50205">
        <ele>177</ele>
        <time>2019-01-09T13:57:27Z</time>
      </trkpt>
      <trkpt lat="43.43347" lon="6.50214">
        <ele>178.2</ele>
        <time>2019-01-09T13:57:40Z</time>
      </trkpt>
      <trkpt lat="43.43355" lon="6.5022">
        <ele>179.5</ele>
        <time>2019-01-09T13:57:51Z</time>
      </trkpt>
      <trkpt lat="43.43363" lon="6.50227">
        <ele>180.8</ele>
        <time>2019-01-09T13:58:00Z</time>
      </trkpt>
      <trkpt lat="43.43369" lon="6.50236">
        <ele>182</ele>
        <time>2019-01-09T13:58:10Z</time>
      </trkpt>
      <trkpt lat="43.43369" lon="6.50249">
        <ele>183</ele>
        <time>2019-01-09T13:58:20Z</time>
      </trkpt>
      <trkpt lat="43.43371" lon="6.50262">
        <ele>183.9</ele>
        <time>2019-01-09T13:58:31Z</time>
      </trkpt>
      <trkpt lat="43.43372" lon="6.50275">
        <ele>184.7</ele>
        <time>2019-01-09T13:58:42Z</time>
      </trkpt>
      <trkpt lat="43.43376" lon="6.50286">
        <ele>185.1</ele>
        <time>2019-01-09T13:58:53Z</time>
      </trkpt>
      <trkpt lat="43.43376" lon="6.503">
        <ele>185.7</ele>
        <time>2019-01-09T13:59:06Z</time>
      </trkpt>
      <trkpt lat="43.43371" lon="6.5031">
        <ele>186.1</ele>
        <time>2019-01-09T13:59:19Z</time>
      </trkpt>
      <trkpt lat="43.43361" lon="6.50314">
        <ele>187.5</ele>
        <time>2019-01-09T14:00:06Z</time>
      </trkpt>
      <trkpt lat="43.43352" lon="6.5032">
        <ele>187.4</ele>
        <time>2019-01-09T14:00:26Z</time>
      </trkpt>
      <trkpt lat="43.43371" lon="6.50304">
        <ele>192</ele>
        <time>2019-01-09T14:08:11Z</time>
      </trkpt>
      <trkpt lat="43.43372" lon="6.50291">
        <ele>192.5</ele>
        <time>2019-01-09T14:08:30Z</time>
      </trkpt>
      <trkpt lat="43.43368" lon="6.5028">
        <ele>192.2</ele>
        <time>2019-01-09T14:08:44Z</time>
      </trkpt>
      <trkpt lat="43.43367" lon="6.50268">
        <ele>192.1</ele>
        <time>2019-01-09T14:08:52Z</time>
      </trkpt>
      <trkpt lat="43.43362" lon="6.50256">
        <ele>191.6</ele>
        <time>2019-01-09T14:09:03Z</time>
      </trkpt>
      <trkpt lat="43.43359" lon="6.50244">
        <ele>190.9</ele>
        <time>2019-01-09T14:09:17Z</time>
      </trkpt>
      <trkpt lat="43.43356" lon="6.50231">
        <ele>190</ele>
        <time>2019-01-09T14:09:31Z</time>
      </trkpt>
      <trkpt lat="43.43349" lon="6.50222">
        <ele>189</ele>
        <time>2019-01-09T14:09:40Z</time>
      </trkpt>
      <trkpt lat="43.43343" lon="6.50212">
        <ele>188</ele>
        <time>2019-01-09T14:09:49Z</time>
      </trkpt>
      <trkpt lat="43.43341" lon="6.50198">
        <ele>186.9</ele>
        <time>2019-01-09T14:09:59Z</time>
      </trkpt>
      <trkpt lat="43.43338" lon="6.50185">
        <ele>186.5</ele>
        <time>2019-01-09T14:10:05Z</time>
      </trkpt>
      <trkpt lat="43.43336" lon="6.50172">
        <ele>186.2</ele>
        <time>2019-01-09T14:10:13Z</time>
      </trkpt>
      <trkpt lat="43.43332" lon="6.5016">
        <ele>185.4</ele>
        <time>2019-01-09T14:10:22Z</time>
      </trkpt>
      <trkpt lat="43.43327" lon="6.5015">
        <ele>184.4</ele>
        <time>2019-01-09T14:10:33Z</time>
      </trkpt>
      <trkpt lat="43.43322" lon="6.50139">
        <ele>183.2</ele>
        <time>2019-01-09T14:10:43Z</time>
      </trkpt>
      <trkpt lat="43.43314" lon="6.50131">
        <ele>180</ele>
        <time>2019-01-09T14:11:04Z</time>
      </trkpt>
      <trkpt lat="43.43307" lon="6.50124">
        <ele>178.7</ele>
        <time>2019-01-09T14:11:11Z</time>
      </trkpt>
      <trkpt lat="43.43304" lon="6.50112">
        <ele>176.9</ele>
        <time>2019-01-09T14:11:22Z</time>
      </trkpt>
      <trkpt lat="43.43295" lon="6.50109">
        <ele>174.3</ele>
        <time>2019-01-09T14:11:38Z</time>
      </trkpt>
      <trkpt lat="43.43286" lon="6.50104">
        <ele>170.8</ele>
        <time>2019-01-09T14:11:56Z</time>
      </trkpt>
      <trkpt lat="43.43279" lon="6.50096">
        <ele>167.9</ele>
        <time>2019-01-09T14:12:19Z</time>
      </trkpt>
      <trkpt lat="43.43272" lon="6.50087">
        <ele>165.1</ele>
        <time>2019-01-09T14:12:40Z</time>
      </trkpt>
      <trkpt lat="43.43257" lon="6.50077">
        <ele>160</ele>
        <time>2019-01-09T14:13:03Z</time>
      </trkpt>
      <trkpt lat="43.43247" lon="6.50076">
        <ele>159.6</ele>
        <time>2019-01-09T14:13:10Z</time>
      </trkpt>
      <trkpt lat="43.43238" lon="6.50076">
        <ele>157.8</ele>
        <time>2019-01-09T14:13:20Z</time>
      </trkpt>
      <trkpt lat="43.4323" lon="6.50068">
        <ele>155.3</ele>
        <time>2019-01-09T14:13:34Z</time>
      </trkpt>
      <trkpt lat="43.43223" lon="6.50059">
        <ele>153.1</ele>
        <time>2019-01-09T14:13:48Z</time>
      </trkpt>
      <trkpt lat="43.43218" lon="6.50047">
        <ele>151.9</ele>
        <time>2019-01-09T14:13:57Z</time>
      </trkpt>
      <trkpt lat="43.43213" lon="6.50036">
        <ele>151.1</ele>
        <time>2019-01-09T14:14:04Z</time>
      </trkpt>
      <trkpt lat="43.43207" lon="6.50026">
        <ele>149.7</ele>
        <time>2019-01-09T14:14:14Z</time>
      </trkpt>
      <trkpt lat="43.43198" lon="6.5003">
        <ele>147.6</ele>
        <time>2019-01-09T14:14:26Z</time>
      </trkpt>
      <trkpt lat="43.4319" lon="6.50036">
        <ele>145.2</ele>
        <time>2019-01-09T14:14:38Z</time>
      </trkpt>
      <trkpt lat="43.43182" lon="6.50028">
        <ele>143.4</ele>
        <time>2019-01-09T14:14:47Z</time>
      </trkpt>
      <trkpt lat="43.43176" lon="6.50018">
        <ele>142.4</ele>
        <time>2019-01-09T14:14:54Z</time>
      </trkpt>
      <trkpt lat="43.43174" lon="6.50006">
        <ele>141.3</ele>
        <time>2019-01-09T14:15:03Z</time>
      </trkpt>
      <trkpt lat="43.43172" lon="6.49993">
        <ele>139.6</ele>
        <time>2019-01-09T14:15:17Z</time>
      </trkpt>
      <trkpt lat="43.43178" lon="6.49982">
        <ele>138.9</ele>
        <time>2019-01-09T14:15:28Z</time>
      </trkpt>
      <trkpt lat="43.43185" lon="6.49973">
        <ele>138.9</ele>
        <time>2019-01-09T14:15:36Z</time>
      </trkpt>
      <trkpt lat="43.43192" lon="6.49966">
        <ele>139.2</ele>
        <time>2019-01-09T14:15:45Z</time>
      </trkpt>
      <trkpt lat="43.432" lon="6.49959">
        <ele>139.6</ele>
        <time>2019-01-09T14:15:54Z</time>
      </trkpt>
      <trkpt lat="43.43207" lon="6.4995">
        <ele>143.3</ele>
        <time>2019-01-09T14:19:08Z</time>
      </trkpt>
      <trkpt lat="43.43214" lon="6.49943">
        <ele>143.5</ele>
        <time>2019-01-09T14:19:13Z</time>
      </trkpt>
      <trkpt lat="43.43221" lon="6.49933">
        <ele>144.6</ele>
        <time>2019-01-09T14:19:37Z</time>
      </trkpt>
      <trkpt lat="43.43229" lon="6.49926">
        <ele>148.8</ele>
        <time>2019-01-09T14:23:05Z</time>
      </trkpt>
      <trkpt lat="43.43234" lon="6.49916">
        <ele>148.5</ele>
        <time>2019-01-09T14:23:16Z</time>
      </trkpt>
      <trkpt lat="43.43238" lon="6.49904">
        <ele>148.4</ele>
        <time>2019-01-09T14:23:27Z</time>
      </trkpt>
      <trkpt lat="43.43242" lon="6.49893">
        <ele>148.4</ele>
        <time>2019-01-09T14:23:37Z</time>
      </trkpt>
      <trkpt lat="43.43247" lon="6.49881">
        <ele>148.6</ele>
        <time>2019-01-09T14:23:48Z</time>
      </trkpt>
      <trkpt lat="43.4325" lon="6.49869">
        <ele>149.2</ele>
        <time>2019-01-09T14:23:58Z</time>
      </trkpt>
      <trkpt lat="43.43251" lon="6.49857">
        <ele>149.9</ele>
        <time>2019-01-09T14:24:07Z</time>
      </trkpt>
      <trkpt lat="43.43254" lon="6.49844">
        <ele>150.3</ele>
        <time>2019-01-09T14:24:16Z</time>
      </trkpt>
      <trkpt lat="43.43255" lon="6.49831">
        <ele>150.9</ele>
        <time>2019-01-09T14:24:26Z</time>
      </trkpt>
      <trkpt lat="43.43256" lon="6.49818">
        <ele>151.5</ele>
        <time>2019-01-09T14:24:35Z</time>
      </trkpt>
      <trkpt lat="43.43258" lon="6.49804">
        <ele>151.9</ele>
        <time>2019-01-09T14:24:45Z</time>
      </trkpt>
      <trkpt lat="43.43261" lon="6.49791">
        <ele>152</ele>
        <time>2019-01-09T14:24:54Z</time>
      </trkpt>
      <trkpt lat="43.43267" lon="6.4978">
        <ele>151.9</ele>
        <time>2019-01-09T14:25:02Z</time>
      </trkpt>
      <trkpt lat="43.43267" lon="6.49767">
        <ele>151.5</ele>
        <time>2019-01-09T14:25:10Z</time>
      </trkpt>
      <trkpt lat="43.43271" lon="6.49755">
        <ele>151</ele>
        <time>2019-01-09T14:25:23Z</time>
      </trkpt>
      <trkpt lat="43.43276" lon="6.49745">
        <ele>150.3</ele>
        <time>2019-01-09T14:25:35Z</time>
      </trkpt>
      <trkpt lat="43.43282" lon="6.49736">
        <ele>149.1</ele>
        <time>2019-01-09T14:25:50Z</time>
      </trkpt>
      <trkpt lat="43.43289" lon="6.49728">
        <ele>148</ele>
        <time>2019-01-09T14:26:10Z</time>
      </trkpt>
      <trkpt lat="43.43298" lon="6.49722">
        <ele>147.5</ele>
        <time>2019-01-09T14:26:21Z</time>
      </trkpt>
      <trkpt lat="43.43302" lon="6.49711">
        <ele>147.3</ele>
        <time>2019-01-09T14:26:31Z</time>
      </trkpt>
      <trkpt lat="43.43307" lon="6.497">
        <ele>147.4</ele>
        <time>2019-01-09T14:26:40Z</time>
      </trkpt>
      <trkpt lat="43.43313" lon="6.4969">
        <ele>147.7</ele>
        <time>2019-01-09T14:26:50Z</time>
      </trkpt>
      <trkpt lat="43.4332" lon="6.49682">
        <ele>148.5</ele>
        <time>2019-01-09T14:27:01Z</time>
      </trkpt>
      <trkpt lat="43.43328" lon="6.49675">
        <ele>149.5</ele>
        <time>2019-01-09T14:27:10Z</time>
      </trkpt>
      <trkpt lat="43.43333" lon="6.49664">
        <ele>150.5</ele>
        <time>2019-01-09T14:27:19Z</time>
      </trkpt>
      <trkpt lat="43.43337" lon="6.49652">
        <ele>152</ele>
        <time>2019-01-09T14:27:32Z</time>
      </trkpt>
      <trkpt lat="43.4334" lon="6.49641">
        <ele>153.6</ele>
        <time>2019-01-09T14:27:43Z</time>
      </trkpt>
      <trkpt lat="43.43339" lon="6.49627">
        <ele>155.4</ele>
        <time>2019-01-09T14:27:54Z</time>
      </trkpt>
      <trkpt lat="43.4334" lon="6.49614">
        <ele>156.2</ele>
        <time>2019-01-09T14:28:03Z</time>
      </trkpt>
      <trkpt lat="43.43341" lon="6.49601">
        <ele>156.6</ele>
        <time>2019-01-09T14:28:11Z</time>
      </trkpt>
      <trkpt lat="43.4334" lon="6.49589">
        <ele>156.8</ele>
        <time>2019-01-09T14:28:18Z</time>
      </trkpt>
      <trkpt lat="43.4334" lon="6.49576">
        <ele>156.9</ele>
        <time>2019-01-09T14:28:26Z</time>
      </trkpt>
      <trkpt lat="43.43342" lon="6.49564">
        <ele>156.5</ele>
        <time>2019-01-09T14:28:35Z</time>
      </trkpt>
      <trkpt lat="43.43344" lon="6.4955">
        <ele>156.3</ele>
        <time>2019-01-09T14:28:46Z</time>
      </trkpt>
      <trkpt lat="43.43344" lon="6.49536">
        <ele>155.9</ele>
        <time>2019-01-09T14:28:57Z</time>
      </trkpt>
      <trkpt lat="43.43343" lon="6.49524">
        <ele>155.2</ele>
        <time>2019-01-09T14:29:05Z</time>
      </trkpt>
      <trkpt lat="43.43346" lon="6.49512">
        <ele>154.7</ele>
        <time>2019-01-09T14:29:16Z</time>
      </trkpt>
      <trkpt lat="43.43349" lon="6.49499">
        <ele>153.9</ele>
        <time>2019-01-09T14:29:28Z</time>
      </trkpt>
      <trkpt lat="43.4335" lon="6.49485">
        <ele>152.9</ele>
        <time>2019-01-09T14:29:41Z</time>
      </trkpt>
      <trkpt lat="43.43352" lon="6.49472">
        <ele>152.3</ele>
        <time>2019-01-09T14:29:51Z</time>
      </trkpt>
      <trkpt lat="43.43352" lon="6.49458">
        <ele>151.4</ele>
        <time>2019-01-09T14:30:01Z</time>
      </trkpt>
      <trkpt lat="43.43349" lon="6.49446">
        <ele>150.6</ele>
        <time>2019-01-09T14:30:09Z</time>
      </trkpt>
      <trkpt lat="43.43346" lon="6.49434">
        <ele>149.8</ele>
        <time>2019-01-09T14:30:16Z</time>
      </trkpt>
      <trkpt lat="43.43343" lon="6.49422">
        <ele>148.5</ele>
        <time>2019-01-09T14:30:26Z</time>
      </trkpt>
      <trkpt lat="43.43337" lon="6.49411">
        <ele>147.3</ele>
        <time>2019-01-09T14:30:36Z</time>
      </trkpt>
      <trkpt lat="43.43332" lon="6.494">
        <ele>146.3</ele>
        <time>2019-01-09T14:30:45Z</time>
      </trkpt>
      <trkpt lat="43.43325" lon="6.49391">
        <ele>145.3</ele>
        <time>2019-01-09T14:30:55Z</time>
      </trkpt>
      <trkpt lat="43.43321" lon="6.49379">
        <ele>144.4</ele>
        <time>2019-01-09T14:31:05Z</time>
      </trkpt>
      <trkpt lat="43.43316" lon="6.49369">
        <ele>143.1</ele>
        <time>2019-01-09T14:31:28Z</time>
      </trkpt>
      <trkpt lat="43.43303" lon="6.49343">
        <ele>142</ele>
        <time>2019-01-09T14:32:01Z</time>
      </trkpt>
      <trkpt lat="43.43299" lon="6.4933">
        <ele>143.3</ele>
        <time>2019-01-09T14:32:11Z</time>
      </trkpt>
      <trkpt lat="43.43295" lon="6.4932">
        <ele>143.9</ele>
        <time>2019-01-09T14:32:18Z</time>
      </trkpt>
      <trkpt lat="43.4329" lon="6.49308">
        <ele>145</ele>
        <time>2019-01-09T14:32:29Z</time>
      </trkpt>
      <trkpt lat="43.43286" lon="6.49296">
        <ele>146.5</ele>
        <time>2019-01-09T14:32:40Z</time>
      </trkpt>
      <trkpt lat="43.43279" lon="6.49286">
        <ele>147.4</ele>
        <time>2019-01-09T14:32:49Z</time>
      </trkpt>
      <trkpt lat="43.43274" lon="6.49276">
        <ele>148.7</ele>
        <time>2019-01-09T14:33:00Z</time>
      </trkpt>
      <trkpt lat="43.43267" lon="6.49267">
        <ele>150.5</ele>
        <time>2019-01-09T14:33:16Z</time>
      </trkpt>
      <trkpt lat="43.43259" lon="6.49261">
        <ele>151.7</ele>
        <time>2019-01-09T14:33:26Z</time>
      </trkpt>
      <trkpt lat="43.43251" lon="6.49253">
        <ele>153.1</ele>
        <time>2019-01-09T14:33:36Z</time>
      </trkpt>
      <trkpt lat="43.43242" lon="6.49248">
        <ele>154.6</ele>
        <time>2019-01-09T14:33:47Z</time>
      </trkpt>
      <trkpt lat="43.43233" lon="6.49247">
        <ele>156.2</ele>
        <time>2019-01-09T14:33:56Z</time>
      </trkpt>
      <trkpt lat="43.43223" lon="6.49247">
        <ele>157.8</ele>
        <time>2019-01-09T14:34:06Z</time>
      </trkpt>
      <trkpt lat="43.43214" lon="6.49246">
        <ele>159.3</ele>
        <time>2019-01-09T14:34:16Z</time>
      </trkpt>
      <trkpt lat="43.43204" lon="6.49247">
        <ele>160.5</ele>
        <time>2019-01-09T14:34:24Z</time>
      </trkpt>
      <trkpt lat="43.43195" lon="6.49253">
        <ele>161.7</ele>
        <time>2019-01-09T14:34:34Z</time>
      </trkpt>
      <trkpt lat="43.43185" lon="6.49257">
        <ele>162.6</ele>
        <time>2019-01-09T14:34:45Z</time>
      </trkpt>
      <trkpt lat="43.43176" lon="6.49254">
        <ele>163.3</ele>
        <time>2019-01-09T14:34:54Z</time>
      </trkpt>
      <trkpt lat="43.43168" lon="6.49247">
        <ele>163.7</ele>
        <time>2019-01-09T14:35:02Z</time>
      </trkpt>
      <trkpt lat="43.43161" lon="6.4924">
        <ele>163.9</ele>
        <time>2019-01-09T14:35:10Z</time>
      </trkpt>
      <trkpt lat="43.43156" lon="6.49229">
        <ele>164</ele>
        <time>2019-01-09T14:35:19Z</time>
      </trkpt>
      <trkpt lat="43.4315" lon="6.49218">
        <ele>163.8</ele>
        <time>2019-01-09T14:35:27Z</time>
      </trkpt>
      <trkpt lat="43.43145" lon="6.49208">
        <ele>163.6</ele>
        <time>2019-01-09T14:35:34Z</time>
      </trkpt>
      <trkpt lat="43.4314" lon="6.49197">
        <ele>163.4</ele>
        <time>2019-01-09T14:35:43Z</time>
      </trkpt>
      <trkpt lat="43.43134" lon="6.49187">
        <ele>163.3</ele>
        <time>2019-01-09T14:35:52Z</time>
      </trkpt>
      <trkpt lat="43.43126" lon="6.4918">
        <ele>163.4</ele>
        <time>2019-01-09T14:36:00Z</time>
      </trkpt>
      <trkpt lat="43.43117" lon="6.49174">
        <ele>163.9</ele>
        <time>2019-01-09T14:36:13Z</time>
      </trkpt>
      <trkpt lat="43.43108" lon="6.49176">
        <ele>164.7</ele>
        <time>2019-01-09T14:36:23Z</time>
      </trkpt>
      <trkpt lat="43.43098" lon="6.49176">
        <ele>165.5</ele>
        <time>2019-01-09T14:36:32Z</time>
      </trkpt>
      <trkpt lat="43.43089" lon="6.49177">
        <ele>166</ele>
        <time>2019-01-09T14:36:39Z</time>
      </trkpt>
      <trkpt lat="43.43081" lon="6.49172">
        <ele>166.3</ele>
        <time>2019-01-09T14:36:47Z</time>
      </trkpt>
      <trkpt lat="43.43073" lon="6.49165">
        <ele>166.6</ele>
        <time>2019-01-09T14:36:55Z</time>
      </trkpt>
      <trkpt lat="43.4307" lon="6.49153">
        <ele>166.7</ele>
        <time>2019-01-09T14:37:01Z</time>
      </trkpt>
      <trkpt lat="43.43064" lon="6.49144">
        <ele>166.9</ele>
        <time>2019-01-09T14:37:10Z</time>
      </trkpt>
      <trkpt lat="43.43058" lon="6.49134">
        <ele>167.1</ele>
        <time>2019-01-09T14:37:19Z</time>
      </trkpt>
      <trkpt lat="43.4305" lon="6.49125">
        <ele>167.2</ele>
        <time>2019-01-09T14:37:27Z</time>
      </trkpt>
      <trkpt lat="43.43043" lon="6.49115">
        <ele>167.3</ele>
        <time>2019-01-09T14:37:38Z</time>
      </trkpt>
      <trkpt lat="43.43039" lon="6.49103">
        <ele>167.2</ele>
        <time>2019-01-09T14:37:45Z</time>
      </trkpt>
      <trkpt lat="43.43039" lon="6.49091">
        <ele>166.7</ele>
        <time>2019-01-09T14:37:55Z</time>
      </trkpt>
      <trkpt lat="43.43031" lon="6.49084">
        <ele>166.1</ele>
        <time>2019-01-09T14:38:08Z</time>
      </trkpt>
      <trkpt lat="43.43023" lon="6.49076">
        <ele>165.1</ele>
        <time>2019-01-09T14:38:17Z</time>
      </trkpt>
      <trkpt lat="43.43017" lon="6.49066">
        <ele>163.3</ele>
        <time>2019-01-09T14:38:29Z</time>
      </trkpt>
      <trkpt lat="43.4301" lon="6.49057">
        <ele>162</ele>
        <time>2019-01-09T14:38:39Z</time>
      </trkpt>
      <trkpt lat="43.43003" lon="6.49049">
        <ele>161</ele>
        <time>2019-01-09T14:38:47Z</time>
      </trkpt>
      <trkpt lat="43.42994" lon="6.49044">
        <ele>160.3</ele>
        <time>2019-01-09T14:38:54Z</time>
      </trkpt>
      <trkpt lat="43.42985" lon="6.4904">
        <ele>159.5</ele>
        <time>2019-01-09T14:39:03Z</time>
      </trkpt>
      <trkpt lat="43.42977" lon="6.49033">
        <ele>158.6</ele>
        <time>2019-01-09T14:39:13Z</time>
      </trkpt>
      <trkpt lat="43.42969" lon="6.49027">
        <ele>157.7</ele>
        <time>2019-01-09T14:39:22Z</time>
      </trkpt>
      <trkpt lat="43.42961" lon="6.49019">
        <ele>156.9</ele>
        <time>2019-01-09T14:39:32Z</time>
      </trkpt>
      <trkpt lat="43.42954" lon="6.49009">
        <ele>156.1</ele>
        <time>2019-01-09T14:39:40Z</time>
      </trkpt>
      <trkpt lat="43.42949" lon="6.48999">
        <ele>155.5</ele>
        <time>2019-01-09T14:39:49Z</time>
      </trkpt>
      <trkpt lat="43.42942" lon="6.48988">
        <ele>155.3</ele>
        <time>2019-01-09T14:39:55Z</time>
      </trkpt>
      <trkpt lat="43.42935" lon="6.48979">
        <ele>155.3</ele>
        <time>2019-01-09T14:40:02Z</time>
      </trkpt>
      <trkpt lat="43.42927" lon="6.48972">
        <ele>155.6</ele>
        <time>2019-01-09T14:40:10Z</time>
      </trkpt>
      <trkpt lat="43.42919" lon="6.48966">
        <ele>156.3</ele>
        <time>2019-01-09T14:40:20Z</time>
      </trkpt>
      <trkpt lat="43.4291" lon="6.48958">
        <ele>157.5</ele>
        <time>2019-01-09T14:40:30Z</time>
      </trkpt>
      <trkpt lat="43.42903" lon="6.48949">
        <ele>158.2</ele>
        <time>2019-01-09T14:40:37Z</time>
      </trkpt>
      <trkpt lat="43.42897" lon="6.48939">
        <ele>158.8</ele>
        <time>2019-01-09T14:40:44Z</time>
      </trkpt>
      <trkpt lat="43.42891" lon="6.48929">
        <ele>159.4</ele>
        <time>2019-01-09T14:40:51Z</time>
      </trkpt>
      <trkpt lat="43.42884" lon="6.48921">
        <ele>160</ele>
        <time>2019-01-09T14:40:58Z</time>
      </trkpt>
      <trkpt lat="43.42876" lon="6.48914">
        <ele>160.9</ele>
        <time>2019-01-09T14:41:06Z</time>
      </trkpt>
      <trkpt lat="43.42868" lon="6.48908">
        <ele>161.9</ele>
        <time>2019-01-09T14:41:16Z</time>
      </trkpt>
      <trkpt lat="43.42858" lon="6.48906">
        <ele>163</ele>
        <time>2019-01-09T14:41:26Z</time>
      </trkpt>
      <trkpt lat="43.42849" lon="6.48908">
        <ele>164.4</ele>
        <time>2019-01-09T14:41:36Z</time>
      </trkpt>
      <trkpt lat="43.42839" lon="6.48909">
        <ele>165.6</ele>
        <time>2019-01-09T14:41:45Z</time>
      </trkpt>
      <trkpt lat="43.4283" lon="6.4891">
        <ele>166.7</ele>
        <time>2019-01-09T14:41:55Z</time>
      </trkpt>
      <trkpt lat="43.4282" lon="6.48909">
        <ele>167.7</ele>
        <time>2019-01-09T14:42:04Z</time>
      </trkpt>
      <trkpt lat="43.4281" lon="6.48908">
        <ele>168.5</ele>
        <time>2019-01-09T14:42:14Z</time>
      </trkpt>
      <trkpt lat="43.42801" lon="6.48905">
        <ele>169.5</ele>
        <time>2019-01-09T14:42:23Z</time>
      </trkpt>
      <trkpt lat="43.42792" lon="6.48903">
        <ele>170.3</ele>
        <time>2019-01-09T14:42:32Z</time>
      </trkpt>
      <trkpt lat="43.42784" lon="6.48896">
        <ele>170.8</ele>
        <time>2019-01-09T14:42:40Z</time>
      </trkpt>
      <trkpt lat="43.42778" lon="6.48886">
        <ele>171.3</ele>
        <time>2019-01-09T14:42:48Z</time>
      </trkpt>
      <trkpt lat="43.42774" lon="6.48874">
        <ele>172.2</ele>
        <time>2019-01-09T14:42:56Z</time>
      </trkpt>
      <trkpt lat="43.42771" lon="6.48862">
        <ele>173</ele>
        <time>2019-01-09T14:43:05Z</time>
      </trkpt>
      <trkpt lat="43.4277" lon="6.48849">
        <ele>173.4</ele>
        <time>2019-01-09T14:43:13Z</time>
      </trkpt>
      <trkpt lat="43.4277" lon="6.48836">
        <ele>173.8</ele>
        <time>2019-01-09T14:43:22Z</time>
      </trkpt>
      <trkpt lat="43.42771" lon="6.48823">
        <ele>174</ele>
        <time>2019-01-09T14:43:30Z</time>
      </trkpt>
      <trkpt lat="43.42773" lon="6.4881">
        <ele>174.2</ele>
        <time>2019-01-09T14:43:37Z</time>
      </trkpt>
      <trkpt lat="43.42775" lon="6.48796">
        <ele>174.3</ele>
        <time>2019-01-09T14:43:46Z</time>
      </trkpt>
      <trkpt lat="43.42775" lon="6.48783">
        <ele>174.3</ele>
        <time>2019-01-09T14:43:54Z</time>
      </trkpt>
      <trkpt lat="43.42776" lon="6.48771">
        <ele>174.2</ele>
        <time>2019-01-09T14:44:02Z</time>
      </trkpt>
      <trkpt lat="43.42777" lon="6.48758">
        <ele>174.3</ele>
        <time>2019-01-09T14:44:10Z</time>
      </trkpt>
      <trkpt lat="43.42776" lon="6.48745">
        <ele>174.3</ele>
        <time>2019-01-09T14:44:18Z</time>
      </trkpt>
      <trkpt lat="43.42775" lon="6.48732">
        <ele>174.3</ele>
        <time>2019-01-09T14:44:27Z</time>
      </trkpt>
      <trkpt lat="43.42772" lon="6.4872">
        <ele>174.3</ele>
        <time>2019-01-09T14:44:35Z</time>
      </trkpt>
      <trkpt lat="43.42767" lon="6.48709">
        <ele>174.4</ele>
        <time>2019-01-09T14:44:43Z</time>
      </trkpt>
      <trkpt lat="43.42761" lon="6.48698">
        <ele>174.8</ele>
        <time>2019-01-09T14:44:51Z</time>
      </trkpt>
      <trkpt lat="43.42755" lon="6.48688">
        <ele>175.1</ele>
        <time>2019-01-09T14:45:00Z</time>
      </trkpt>
      <trkpt lat="43.42748" lon="6.48677">
        <ele>175.4</ele>
        <time>2019-01-09T14:45:08Z</time>
      </trkpt>
      <trkpt lat="43.42741" lon="6.48669">
        <ele>175.7</ele>
        <time>2019-01-09T14:45:16Z</time>
      </trkpt>
      <trkpt lat="43.42736" lon="6.48658">
        <ele>176.4</ele>
        <time>2019-01-09T14:45:25Z</time>
      </trkpt>
      <trkpt lat="43.4273" lon="6.48647">
        <ele>177.1</ele>
        <time>2019-01-09T14:45:34Z</time>
      </trkpt>
      <trkpt lat="43.42723" lon="6.48637">
        <ele>177.5</ele>
        <time>2019-01-09T14:45:41Z</time>
      </trkpt>
      <trkpt lat="43.42714" lon="6.4863">
        <ele>177.9</ele>
        <time>2019-01-09T14:45:49Z</time>
      </trkpt>
      <trkpt lat="43.42706" lon="6.48623">
        <ele>178.3</ele>
        <time>2019-01-09T14:45:58Z</time>
      </trkpt>
      <trkpt lat="43.42698" lon="6.48614">
        <ele>179.1</ele>
        <time>2019-01-09T14:46:09Z</time>
      </trkpt>
      <trkpt lat="43.42691" lon="6.48606">
        <ele>180.2</ele>
        <time>2019-01-09T14:46:18Z</time>
      </trkpt>
      <trkpt lat="43.42683" lon="6.48599">
        <ele>181.6</ele>
        <time>2019-01-09T14:46:29Z</time>
      </trkpt>
      <trkpt lat="43.42676" lon="6.4859">
        <ele>182.4</ele>
        <time>2019-01-09T14:46:39Z</time>
      </trkpt>
      <trkpt lat="43.42676" lon="6.48576">
        <ele>183.6</ele>
        <time>2019-01-09T14:46:59Z</time>
      </trkpt>
      <trkpt lat="43.42684" lon="6.48567">
        <ele>185.1</ele>
        <time>2019-01-09T14:52:41Z</time>
      </trkpt>
      <trkpt lat="43.42691" lon="6.48558">
        <ele>185.1</ele>
        <time>2019-01-09T14:52:48Z</time>
      </trkpt>
      <trkpt lat="43.42699" lon="6.4855">
        <ele>185.1</ele>
        <time>2019-01-09T14:52:56Z</time>
      </trkpt>
      <trkpt lat="43.42706" lon="6.48542">
        <ele>184.7</ele>
        <time>2019-01-09T14:53:05Z</time>
      </trkpt>
      <trkpt lat="43.42714" lon="6.48534">
        <ele>184.4</ele>
        <time>2019-01-09T14:53:12Z</time>
      </trkpt>
      <trkpt lat="43.42719" lon="6.48522">
        <ele>183.9</ele>
        <time>2019-01-09T14:53:23Z</time>
      </trkpt>
      <trkpt lat="43.42726" lon="6.48513">
        <ele>183.7</ele>
        <time>2019-01-09T14:53:32Z</time>
      </trkpt>
      <trkpt lat="43.42735" lon="6.48507">
        <ele>183.6</ele>
        <time>2019-01-09T14:53:41Z</time>
      </trkpt>
      <trkpt lat="43.42745" lon="6.48507">
        <ele>184</ele>
        <time>2019-01-09T14:53:48Z</time>
      </trkpt>
      <trkpt lat="43.42754" lon="6.48508">
        <ele>184.6</ele>
        <time>2019-01-09T14:53:56Z</time>
      </trkpt>
      <trkpt lat="43.42764" lon="6.48511">
        <ele>184.9</ele>
        <time>2019-01-09T14:54:02Z</time>
      </trkpt>
      <trkpt lat="43.42773" lon="6.48512">
        <ele>185.4</ele>
        <time>2019-01-09T14:54:09Z</time>
      </trkpt>
      <trkpt lat="43.42783" lon="6.48512">
        <ele>185.7</ele>
        <time>2019-01-09T14:54:16Z</time>
      </trkpt>
      <trkpt lat="43.42793" lon="6.4851">
        <ele>186</ele>
        <time>2019-01-09T14:54:23Z</time>
      </trkpt>
      <trkpt lat="43.42802" lon="6.48508">
        <ele>186.2</ele>
        <time>2019-01-09T14:54:31Z</time>
      </trkpt>
      <trkpt lat="43.42811" lon="6.48505">
        <ele>186.4</ele>
        <time>2019-01-09T14:54:38Z</time>
      </trkpt>
      <trkpt lat="43.4282" lon="6.48499">
        <ele>186.5</ele>
        <time>2019-01-09T14:54:45Z</time>
      </trkpt>
      <trkpt lat="43.42828" lon="6.48493">
        <ele>186.5</ele>
        <time>2019-01-09T14:54:52Z</time>
      </trkpt>
      <trkpt lat="43.42836" lon="6.48486">
        <ele>186.4</ele>
        <time>2019-01-09T14:54:59Z</time>
      </trkpt>
      <trkpt lat="43.42843" lon="6.48479">
        <ele>186.1</ele>
        <time>2019-01-09T14:55:06Z</time>
      </trkpt>
      <trkpt lat="43.42852" lon="6.48471">
        <ele>185.5</ele>
        <time>2019-01-09T14:55:15Z</time>
      </trkpt>
      <trkpt lat="43.4286" lon="6.48465">
        <ele>184.7</ele>
        <time>2019-01-09T14:55:24Z</time>
      </trkpt>
      <trkpt lat="43.42869" lon="6.4846">
        <ele>184</ele>
        <time>2019-01-09T14:55:33Z</time>
      </trkpt>
      <trkpt lat="43.42878" lon="6.48455">
        <ele>183.3</ele>
        <time>2019-01-09T14:55:42Z</time>
      </trkpt>
      <trkpt lat="43.42887" lon="6.48451">
        <ele>182.8</ele>
        <time>2019-01-09T14:55:48Z</time>
      </trkpt>
      <trkpt lat="43.42895" lon="6.48445">
        <ele>182.4</ele>
        <time>2019-01-09T14:55:56Z</time>
      </trkpt>
      <trkpt lat="43.42902" lon="6.48437">
        <ele>181.7</ele>
        <time>2019-01-09T14:56:05Z</time>
      </trkpt>
      <trkpt lat="43.4291" lon="6.48429">
        <ele>180.9</ele>
        <time>2019-01-09T14:56:13Z</time>
      </trkpt>
      <trkpt lat="43.42917" lon="6.48421">
        <ele>179.7</ele>
        <time>2019-01-09T14:56:21Z</time>
      </trkpt>
      <trkpt lat="43.42926" lon="6.48414">
        <ele>178.2</ele>
        <time>2019-01-09T14:56:29Z</time>
      </trkpt>
      <trkpt lat="43.42934" lon="6.48407">
        <ele>176.2</ele>
        <time>2019-01-09T14:56:40Z</time>
      </trkpt>
      <trkpt lat="43.42941" lon="6.48399">
        <ele>174.6</ele>
        <time>2019-01-09T14:56:49Z</time>
      </trkpt>
      <trkpt lat="43.4295" lon="6.48394">
        <ele>172.9</ele>
        <time>2019-01-09T14:56:58Z</time>
      </trkpt>
      <trkpt lat="43.42958" lon="6.48386">
        <ele>171.3</ele>
        <time>2019-01-09T14:57:07Z</time>
      </trkpt>
      <trkpt lat="43.42967" lon="6.4838">
        <ele>170.1</ele>
        <time>2019-01-09T14:57:16Z</time>
      </trkpt>
      <trkpt lat="43.42976" lon="6.48375">
        <ele>169</ele>
        <time>2019-01-09T14:57:24Z</time>
      </trkpt>
      <trkpt lat="43.42983" lon="6.48367">
        <ele>167.8</ele>
        <time>2019-01-09T14:57:35Z</time>
      </trkpt>
      <trkpt lat="43.42991" lon="6.4836">
        <ele>167.3</ele>
        <time>2019-01-09T14:57:42Z</time>
      </trkpt>
      <trkpt lat="43.42999" lon="6.48352">
        <ele>167</ele>
        <time>2019-01-09T14:57:49Z</time>
      </trkpt>
      <trkpt lat="43.43007" lon="6.48347">
        <ele>166.8</ele>
        <time>2019-01-09T14:57:55Z</time>
      </trkpt>
      <trkpt lat="43.43015" lon="6.4834">
        <ele>166.7</ele>
        <time>2019-01-09T14:58:03Z</time>
      </trkpt>
      <trkpt lat="43.43022" lon="6.48331">
        <ele>166.9</ele>
        <time>2019-01-09T14:58:17Z</time>
      </trkpt>
      <trkpt lat="43.4303" lon="6.48325">
        <ele>167</ele>
        <time>2019-01-09T14:58:26Z</time>
      </trkpt>
      <trkpt lat="43.43038" lon="6.48317">
        <ele>167.5</ele>
        <time>2019-01-09T14:58:36Z</time>
      </trkpt>
      <trkpt lat="43.43045" lon="6.4831">
        <ele>167.8</ele>
        <time>2019-01-09T14:58:44Z</time>
      </trkpt>
      <trkpt lat="43.43053" lon="6.48303">
        <ele>168.2</ele>
        <time>2019-01-09T14:58:53Z</time>
      </trkpt>
      <trkpt lat="43.43061" lon="6.48295">
        <ele>168.8</ele>
        <time>2019-01-09T14:59:02Z</time>
      </trkpt>
      <trkpt lat="43.43068" lon="6.48285">
        <ele>170</ele>
        <time>2019-01-09T14:59:12Z</time>
      </trkpt>
      <trkpt lat="43.43076" lon="6.48277">
        <ele>171.2</ele>
        <time>2019-01-09T14:59:22Z</time>
      </trkpt>
      <trkpt lat="43.43083" lon="6.48269">
        <ele>172.4</ele>
        <time>2019-01-09T14:59:31Z</time>
      </trkpt>
      <trkpt lat="43.43091" lon="6.48262">
        <ele>173.4</ele>
        <time>2019-01-09T14:59:39Z</time>
      </trkpt>
      <trkpt lat="43.43099" lon="6.48254">
        <ele>174.6</ele>
        <time>2019-01-09T14:59:48Z</time>
      </trkpt>
      <trkpt lat="43.43107" lon="6.48248">
        <ele>175.6</ele>
        <time>2019-01-09T14:59:56Z</time>
      </trkpt>
      <trkpt lat="43.43115" lon="6.4824">
        <ele>176.6</ele>
        <time>2019-01-09T15:00:06Z</time>
      </trkpt>
      <trkpt lat="43.43122" lon="6.48233">
        <ele>177.4</ele>
        <time>2019-01-09T15:00:15Z</time>
      </trkpt>
      <trkpt lat="43.43131" lon="6.48228">
        <ele>178.2</ele>
        <time>2019-01-09T15:00:28Z</time>
      </trkpt>
      <trkpt lat="43.4314" lon="6.48231">
        <ele>178.3</ele>
        <time>2019-01-09T15:02:25Z</time>
      </trkpt>
      <trkpt lat="43.43146" lon="6.48241">
        <ele>177.7</ele>
        <time>2019-01-09T15:02:35Z</time>
      </trkpt>
      <trkpt lat="43.43151" lon="6.48253">
        <ele>176.6</ele>
        <time>2019-01-09T15:02:44Z</time>
      </trkpt>
      <trkpt lat="43.43155" lon="6.48266">
        <ele>175.8</ele>
        <time>2019-01-09T15:02:53Z</time>
      </trkpt>
      <trkpt lat="43.43156" lon="6.48279">
        <ele>175</ele>
        <time>2019-01-09T15:03:01Z</time>
      </trkpt>
      <trkpt lat="43.43155" lon="6.48292">
        <ele>173.6</ele>
        <time>2019-01-09T15:03:16Z</time>
      </trkpt>
      <trkpt lat="43.43155" lon="6.48305">
        <ele>172.6</ele>
        <time>2019-01-09T15:03:25Z</time>
      </trkpt>
      <trkpt lat="43.43158" lon="6.48317">
        <ele>171.8</ele>
        <time>2019-01-09T15:03:33Z</time>
      </trkpt>
      <trkpt lat="43.4316" lon="6.4833">
        <ele>171.1</ele>
        <time>2019-01-09T15:03:42Z</time>
      </trkpt>
      <trkpt lat="43.43162" lon="6.48342">
        <ele>170.5</ele>
        <time>2019-01-09T15:03:50Z</time>
      </trkpt>
      <trkpt lat="43.43162" lon="6.48356">
        <ele>169.4</ele>
        <time>2019-01-09T15:04:02Z</time>
      </trkpt>
      <trkpt lat="43.43161" lon="6.48368">
        <ele>168.9</ele>
        <time>2019-01-09T15:04:11Z</time>
      </trkpt>
      <trkpt lat="43.43158" lon="6.48381">
        <ele>168.3</ele>
        <time>2019-01-09T15:04:21Z</time>
      </trkpt>
      <trkpt lat="43.43155" lon="6.48394">
        <ele>167.7</ele>
        <time>2019-01-09T15:04:29Z</time>
      </trkpt>
      <trkpt lat="43.4315" lon="6.48404">
        <ele>166.9</ele>
        <time>2019-01-09T15:04:36Z</time>
      </trkpt>
      <trkpt lat="43.43144" lon="6.48416">
        <ele>165.7</ele>
        <time>2019-01-09T15:04:46Z</time>
      </trkpt>
      <trkpt lat="43.43142" lon="6.48429">
        <ele>164.6</ele>
        <time>2019-01-09T15:04:54Z</time>
      </trkpt>
      <trkpt lat="43.43141" lon="6.48441">
        <ele>163.4</ele>
        <time>2019-01-09T15:05:02Z</time>
      </trkpt>
      <trkpt lat="43.43141" lon="6.48454">
        <ele>161.5</ele>
        <time>2019-01-09T15:05:13Z</time>
      </trkpt>
      <trkpt lat="43.43146" lon="6.48466">
        <ele>159.8</ele>
        <time>2019-01-09T15:05:23Z</time>
      </trkpt>
      <trkpt lat="43.43152" lon="6.48475">
        <ele>158.2</ele>
        <time>2019-01-09T15:05:32Z</time>
      </trkpt>
      <trkpt lat="43.43157" lon="6.48485">
        <ele>156.2</ele>
        <time>2019-01-09T15:05:42Z</time>
      </trkpt>
      <trkpt lat="43.43162" lon="6.48497">
        <ele>153.9</ele>
        <time>2019-01-09T15:05:53Z</time>
      </trkpt>
      <trkpt lat="43.43164" lon="6.48509">
        <ele>151.6</ele>
        <time>2019-01-09T15:06:02Z</time>
      </trkpt>
      <trkpt lat="43.43166" lon="6.48521">
        <ele>149.4</ele>
        <time>2019-01-09T15:06:13Z</time>
      </trkpt>
      <trkpt lat="43.43167" lon="6.48534">
        <ele>147.4</ele>
        <time>2019-01-09T15:06:24Z</time>
      </trkpt>
      <trkpt lat="43.43172" lon="6.48545">
        <ele>143.7</ele>
        <time>2019-01-09T15:06:39Z</time>
      </trkpt>
      <trkpt lat="43.43178" lon="6.48555">
        <ele>142</ele>
        <time>2019-01-09T15:06:49Z</time>
      </trkpt>
      <trkpt lat="43.43186" lon="6.48562">
        <ele>140.4</ele>
        <time>2019-01-09T15:06:59Z</time>
      </trkpt>
      <trkpt lat="43.43194" lon="6.48569">
        <ele>137.9</ele>
        <time>2019-01-09T15:07:12Z</time>
      </trkpt>
      <trkpt lat="43.43201" lon="6.48576">
        <ele>136.7</ele>
        <time>2019-01-09T15:07:21Z</time>
      </trkpt>
      <trkpt lat="43.43208" lon="6.48584">
        <ele>135.2</ele>
        <time>2019-01-09T15:07:29Z</time>
      </trkpt>
      <trkpt lat="43.43213" lon="6.48595">
        <ele>133.3</ele>
        <time>2019-01-09T15:07:38Z</time>
      </trkpt>
      <trkpt lat="43.43218" lon="6.48608">
        <ele>131.6</ele>
        <time>2019-01-09T15:07:47Z</time>
      </trkpt>
      <trkpt lat="43.43222" lon="6.48621">
        <ele>130.5</ele>
        <time>2019-01-09T15:07:54Z</time>
      </trkpt>
      <trkpt lat="43.43226" lon="6.48633">
        <ele>129.2</ele>
        <time>2019-01-09T15:08:03Z</time>
      </trkpt>
      <trkpt lat="43.43233" lon="6.48641">
        <ele>128</ele>
        <time>2019-01-09T15:08:15Z</time>
      </trkpt>
      <trkpt lat="43.43242" lon="6.48644">
        <ele>127</ele>
        <time>2019-01-09T15:08:25Z</time>
      </trkpt>
      <trkpt lat="43.43252" lon="6.48643">
        <ele>126.3</ele>
        <time>2019-01-09T15:08:34Z</time>
      </trkpt>
      <trkpt lat="43.43261" lon="6.48643">
        <ele>125.6</ele>
        <time>2019-01-09T15:08:41Z</time>
      </trkpt>
      <trkpt lat="43.43271" lon="6.48642">
        <ele>124.9</ele>
        <time>2019-01-09T15:08:48Z</time>
      </trkpt>
      <trkpt lat="43.433" lon="6.48643">
        <ele>120</ele>
        <time>2019-01-09T15:09:23Z</time>
      </trkpt>
      <trkpt lat="43.4331" lon="6.48643">
        <ele>119.2</ele>
        <time>2019-01-09T15:09:31Z</time>
      </trkpt>
      <trkpt lat="43.43319" lon="6.48643">
        <ele>118.3</ele>
        <time>2019-01-09T15:09:42Z</time>
      </trkpt>
      <trkpt lat="43.43328" lon="6.48645">
        <ele>117.5</ele>
        <time>2019-01-09T15:09:52Z</time>
      </trkpt>
      <trkpt lat="43.43338" lon="6.4865">
        <ele>116.6</ele>
        <time>2019-01-09T15:10:00Z</time>
      </trkpt>
      <trkpt lat="43.43347" lon="6.48652">
        <ele>115.8</ele>
        <time>2019-01-09T15:10:08Z</time>
      </trkpt>
      <trkpt lat="43.43356" lon="6.48653">
        <ele>114.5</ele>
        <time>2019-01-09T15:10:17Z</time>
      </trkpt>
      <trkpt lat="43.43365" lon="6.48656">
        <ele>113.6</ele>
        <time>2019-01-09T15:10:25Z</time>
      </trkpt>
      <trkpt lat="43.43374" lon="6.48661">
        <ele>112.7</ele>
        <time>2019-01-09T15:10:33Z</time>
      </trkpt>
      <trkpt lat="43.43383" lon="6.48667">
        <ele>111.3</ele>
        <time>2019-01-09T15:10:43Z</time>
      </trkpt>
      <trkpt lat="43.43391" lon="6.48671">
        <ele>110.4</ele>
        <time>2019-01-09T15:10:51Z</time>
      </trkpt>
      <trkpt lat="43.434" lon="6.48676">
        <ele>109.3</ele>
        <time>2019-01-09T15:10:59Z</time>
      </trkpt>
      <trkpt lat="43.43409" lon="6.48679">
        <ele>107.4</ele>
        <time>2019-01-09T15:11:12Z</time>
      </trkpt>
      <trkpt lat="43.43418" lon="6.48685">
        <ele>105.5</ele>
        <time>2019-01-09T15:11:23Z</time>
      </trkpt>
      <trkpt lat="43.43425" lon="6.48692">
        <ele>104.4</ele>
        <time>2019-01-09T15:11:29Z</time>
      </trkpt>
      <trkpt lat="43.43431" lon="6.48702">
        <ele>103.3</ele>
        <time>2019-01-09T15:11:36Z</time>
      </trkpt>
      <trkpt lat="43.43436" lon="6.48713">
        <ele>101.9</ele>
        <time>2019-01-09T15:11:45Z</time>
      </trkpt>
      <trkpt lat="43.4344" lon="6.48725">
        <ele>100.5</ele>
        <time>2019-01-09T15:11:54Z</time>
      </trkpt>
      <trkpt lat="43.43444" lon="6.48737">
        <ele>99.2</ele>
        <time>2019-01-09T15:12:03Z</time>
      </trkpt>
      <trkpt lat="43.4345" lon="6.48746">
        <ele>97.9</ele>
        <time>2019-01-09T15:12:12Z</time>
      </trkpt>
      <trkpt lat="43.43457" lon="6.48756">
        <ele>96.8</ele>
        <time>2019-01-09T15:12:20Z</time>
      </trkpt>
      <trkpt lat="43.43458" lon="6.48768">
        <ele>95.5</ele>
        <time>2019-01-09T15:12:30Z</time>
      </trkpt>
      <trkpt lat="43.43448" lon="6.48772">
        <ele>94.2</ele>
        <time>2019-01-09T15:12:39Z</time>
      </trkpt>
      <trkpt lat="43.43439" lon="6.48767">
        <ele>93.2</ele>
        <time>2019-01-09T15:12:53Z</time>
      </trkpt>
      <trkpt lat="43.4343" lon="6.48762">
        <ele>92.9</ele>
        <time>2019-01-09T15:13:01Z</time>
      </trkpt>
      <trkpt lat="43.4342" lon="6.48758">
        <ele>92.6</ele>
        <time>2019-01-09T15:13:09Z</time>
      </trkpt>
      <trkpt lat="43.43412" lon="6.48752">
        <ele>92.4</ele>
        <time>2019-01-09T15:13:19Z</time>
      </trkpt>
      <trkpt lat="43.43403" lon="6.48745">
        <ele>93.7</ele>
        <time>2019-01-09T15:15:31Z</time>
      </trkpt>
      <trkpt lat="43.43394" lon="6.48739">
        <ele>94</ele>
        <time>2019-01-09T15:15:43Z</time>
      </trkpt>
      <trkpt lat="43.43385" lon="6.48738">
        <ele>94.3</ele>
        <time>2019-01-09T15:15:53Z</time>
      </trkpt>
      <trkpt lat="43.43376" lon="6.48736">
        <ele>94.6</ele>
        <time>2019-01-09T15:16:01Z</time>
      </trkpt>
      <trkpt lat="43.43367" lon="6.48732">
        <ele>94.8</ele>
        <time>2019-01-09T15:16:09Z</time>
      </trkpt>
      <trkpt lat="43.43358" lon="6.48732">
        <ele>95.1</ele>
        <time>2019-01-09T15:16:17Z</time>
      </trkpt>
      <trkpt lat="43.43349" lon="6.48728">
        <ele>95.9</ele>
        <time>2019-01-09T15:16:30Z</time>
      </trkpt>
      <trkpt lat="43.43343" lon="6.48716">
        <ele>96.9</ele>
        <time>2019-01-09T15:16:45Z</time>
      </trkpt>
      <trkpt lat="43.43331" lon="6.48721">
        <ele>97.5</ele>
        <time>2019-01-09T15:16:54Z</time>
      </trkpt>
      <trkpt lat="43.43322" lon="6.48719">
        <ele>97.8</ele>
        <time>2019-01-09T15:16:59Z</time>
      </trkpt>
      <trkpt lat="43.43313" lon="6.48718">
        <ele>98.2</ele>
        <time>2019-01-09T15:17:06Z</time>
      </trkpt>
      <trkpt lat="43.43304" lon="6.48717">
        <ele>98.8</ele>
        <time>2019-01-09T15:17:15Z</time>
      </trkpt>
      <trkpt lat="43.43294" lon="6.48721">
        <ele>99.5</ele>
        <time>2019-01-09T15:17:29Z</time>
      </trkpt>
      <trkpt lat="43.43285" lon="6.48718">
        <ele>99.8</ele>
        <time>2019-01-09T15:17:37Z</time>
      </trkpt>
      <trkpt lat="43.43276" lon="6.48718">
        <ele>100.4</ele>
        <time>2019-01-09T15:17:47Z</time>
      </trkpt>
      <trkpt lat="43.43266" lon="6.48716">
        <ele>100.9</ele>
        <time>2019-01-09T15:17:56Z</time>
      </trkpt>
      <trkpt lat="43.43256" lon="6.48716">
        <ele>101.3</ele>
        <time>2019-01-09T15:18:05Z</time>
      </trkpt>
      <trkpt lat="43.43247" lon="6.48715">
        <ele>102</ele>
        <time>2019-01-09T15:18:24Z</time>
      </trkpt>
      <trkpt lat="43.43238" lon="6.48713">
        <ele>102.3</ele>
        <time>2019-01-09T15:18:32Z</time>
      </trkpt>
      <trkpt lat="43.43227" lon="6.48709">
        <ele>102.7</ele>
        <time>2019-01-09T15:18:44Z</time>
      </trkpt>
      <trkpt lat="43.43218" lon="6.48705">
        <ele>102.8</ele>
        <time>2019-01-09T15:18:52Z</time>
      </trkpt>
      <trkpt lat="43.43208" lon="6.48705">
        <ele>102.9</ele>
        <time>2019-01-09T15:18:59Z</time>
      </trkpt>
      <trkpt lat="43.43199" lon="6.48703">
        <ele>103.1</ele>
        <time>2019-01-09T15:19:06Z</time>
      </trkpt>
      <trkpt lat="43.43192" lon="6.48695">
        <ele>103.5</ele>
        <time>2019-01-09T15:19:16Z</time>
      </trkpt>
      <trkpt lat="43.43184" lon="6.48687">
        <ele>104.1</ele>
        <time>2019-01-09T15:19:25Z</time>
      </trkpt>
      <trkpt lat="43.43176" lon="6.48682">
        <ele>104.5</ele>
        <time>2019-01-09T15:19:32Z</time>
      </trkpt>
      <trkpt lat="43.43166" lon="6.48681">
        <ele>105.1</ele>
        <time>2019-01-09T15:19:40Z</time>
      </trkpt>
      <trkpt lat="43.43156" lon="6.48679">
        <ele>105.8</ele>
        <time>2019-01-09T15:19:51Z</time>
      </trkpt>
      <trkpt lat="43.43148" lon="6.48672">
        <ele>106</ele>
        <time>2019-01-09T15:19:58Z</time>
      </trkpt>
      <trkpt lat="43.43141" lon="6.48665">
        <ele>106.9</ele>
        <time>2019-01-09T15:20:15Z</time>
      </trkpt>
      <trkpt lat="43.43132" lon="6.4866">
        <ele>107.1</ele>
        <time>2019-01-09T15:20:22Z</time>
      </trkpt>
      <trkpt lat="43.43124" lon="6.48653">
        <ele>107.3</ele>
        <time>2019-01-09T15:20:30Z</time>
      </trkpt>
      <trkpt lat="43.43119" lon="6.48641">
        <ele>108</ele>
        <time>2019-01-09T15:20:45Z</time>
      </trkpt>
      <trkpt lat="43.43116" lon="6.48629">
        <ele>108.3</ele>
        <time>2019-01-09T15:20:57Z</time>
      </trkpt>
      <trkpt lat="43.4311" lon="6.48619">
        <ele>108.4</ele>
        <time>2019-01-09T15:21:10Z</time>
      </trkpt>
      <trkpt lat="43.43101" lon="6.48607">
        <ele>109.2</ele>
        <time>2019-01-09T15:21:26Z</time>
      </trkpt>
      <trkpt lat="43.4309" lon="6.48607">
        <ele>109.5</ele>
        <time>2019-01-09T15:21:31Z</time>
      </trkpt>
      <trkpt lat="43.43085" lon="6.48618">
        <ele>110</ele>
        <time>2019-01-09T15:21:42Z</time>
      </trkpt>
      <trkpt lat="43.43088" lon="6.48631">
        <ele>110.5</ele>
        <time>2019-01-09T15:21:51Z</time>
      </trkpt>
      <trkpt lat="43.43092" lon="6.48645">
        <ele>110.8</ele>
        <time>2019-01-09T15:22:00Z</time>
      </trkpt>
      <trkpt lat="43.43095" lon="6.48656">
        <ele>110.9</ele>
        <time>2019-01-09T15:22:07Z</time>
      </trkpt>
      <trkpt lat="43.43091" lon="6.48668">
        <ele>111.2</ele>
        <time>2019-01-09T15:22:16Z</time>
      </trkpt>
      <trkpt lat="43.43083" lon="6.48675">
        <ele>111.4</ele>
        <time>2019-01-09T15:22:30Z</time>
      </trkpt>
      <trkpt lat="43.43074" lon="6.4868">
        <ele>111.4</ele>
        <time>2019-01-09T15:22:40Z</time>
      </trkpt>
      <trkpt lat="43.43067" lon="6.48688">
        <ele>111.4</ele>
        <time>2019-01-09T15:22:45Z</time>
      </trkpt>
      <trkpt lat="43.43061" lon="6.48699">
        <ele>111.5</ele>
        <time>2019-01-09T15:22:54Z</time>
      </trkpt>
      <trkpt lat="43.43053" lon="6.48707">
        <ele>111.5</ele>
        <time>2019-01-09T15:23:03Z</time>
      </trkpt>
      <trkpt lat="43.43044" lon="6.48707">
        <ele>111.4</ele>
        <time>2019-01-09T15:23:13Z</time>
      </trkpt>
      <trkpt lat="43.43038" lon="6.48717">
        <ele>110.9</ele>
        <time>2019-01-09T15:23:25Z</time>
      </trkpt>
      <trkpt lat="43.43047" lon="6.48722">
        <ele>110.7</ele>
        <time>2019-01-09T15:23:44Z</time>
      </trkpt>
      <trkpt lat="43.43056" lon="6.4872">
        <ele>111.4</ele>
        <time>2019-01-09T15:23:56Z</time>
      </trkpt>
      <trkpt lat="43.43066" lon="6.48721">
        <ele>111.9</ele>
        <time>2019-01-09T15:24:02Z</time>
      </trkpt>
      <trkpt lat="43.43075" lon="6.48721">
        <ele>112.3</ele>
        <time>2019-01-09T15:24:09Z</time>
      </trkpt>
      <trkpt lat="43.43084" lon="6.48722">
        <ele>112.6</ele>
        <time>2019-01-09T15:24:17Z</time>
      </trkpt>
      <trkpt lat="43.43093" lon="6.4872">
        <ele>112.8</ele>
        <time>2019-01-09T15:24:27Z</time>
      </trkpt>
      <trkpt lat="43.43102" lon="6.48725">
        <ele>112.7</ele>
        <time>2019-01-09T15:24:34Z</time>
      </trkpt>
      <trkpt lat="43.4311" lon="6.4873">
        <ele>112.5</ele>
        <time>2019-01-09T15:24:42Z</time>
      </trkpt>
      <trkpt lat="43.43119" lon="6.48736">
        <ele>112.2</ele>
        <time>2019-01-09T15:24:53Z</time>
      </trkpt>
      <trkpt lat="43.43127" lon="6.48742">
        <ele>112</ele>
        <time>2019-01-09T15:25:01Z</time>
      </trkpt>
      <trkpt lat="43.43134" lon="6.48751">
        <ele>111.9</ele>
        <time>2019-01-09T15:25:10Z</time>
      </trkpt>
      <trkpt lat="43.43142" lon="6.48759">
        <ele>111.7</ele>
        <time>2019-01-09T15:25:19Z</time>
      </trkpt>
      <trkpt lat="43.43149" lon="6.48768">
        <ele>111.7</ele>
        <time>2019-01-09T15:25:27Z</time>
      </trkpt>
      <trkpt lat="43.43154" lon="6.48779">
        <ele>111.7</ele>
        <time>2019-01-09T15:25:34Z</time>
      </trkpt>
      <trkpt lat="43.43158" lon="6.48793">
        <ele>111.8</ele>
        <time>2019-01-09T15:25:42Z</time>
      </trkpt>
      <trkpt lat="43.43164" lon="6.48802">
        <ele>112.1</ele>
        <time>2019-01-09T15:25:55Z</time>
      </trkpt>
      <trkpt lat="43.43172" lon="6.48806">
        <ele>112.4</ele>
        <time>2019-01-09T15:26:03Z</time>
      </trkpt>
      <trkpt lat="43.43182" lon="6.48808">
        <ele>112.6</ele>
        <time>2019-01-09T15:26:09Z</time>
      </trkpt>
      <trkpt lat="43.4319" lon="6.48815">
        <ele>113</ele>
        <time>2019-01-09T15:26:16Z</time>
      </trkpt>
      <trkpt lat="43.43196" lon="6.48825">
        <ele>113.5</ele>
        <time>2019-01-09T15:26:27Z</time>
      </trkpt>
      <trkpt lat="43.43201" lon="6.48836">
        <ele>113.7</ele>
        <time>2019-01-09T15:26:36Z</time>
      </trkpt>
      <trkpt lat="43.43208" lon="6.48845">
        <ele>114.1</ele>
        <time>2019-01-09T15:26:44Z</time>
      </trkpt>
      <trkpt lat="43.43216" lon="6.48852">
        <ele>114.7</ele>
        <time>2019-01-09T15:26:54Z</time>
      </trkpt>
      <trkpt lat="43.43225" lon="6.48856">
        <ele>115.1</ele>
        <time>2019-01-09T15:27:03Z</time>
      </trkpt>
      <trkpt lat="43.43233" lon="6.48862">
        <ele>115.3</ele>
        <time>2019-01-09T15:27:13Z</time>
      </trkpt>
      <trkpt lat="43.43237" lon="6.48874">
        <ele>115.5</ele>
        <time>2019-01-09T15:27:24Z</time>
      </trkpt>
      <trkpt lat="43.43237" lon="6.48887">
        <ele>115.7</ele>
        <time>2019-01-09T15:27:37Z</time>
      </trkpt>
      <trkpt lat="43.43234" lon="6.489">
        <ele>115.9</ele>
        <time>2019-01-09T15:27:42Z</time>
      </trkpt>
      <trkpt lat="43.43231" lon="6.48912">
        <ele>116.1</ele>
        <time>2019-01-09T15:27:49Z</time>
      </trkpt>
      <trkpt lat="43.43228" lon="6.48925">
        <ele>116.5</ele>
        <time>2019-01-09T15:28:01Z</time>
      </trkpt>
      <trkpt lat="43.43223" lon="6.48935">
        <ele>117</ele>
        <time>2019-01-09T15:28:09Z</time>
      </trkpt>
      <trkpt lat="43.43227" lon="6.48947">
        <ele>117.4</ele>
        <time>2019-01-09T15:28:18Z</time>
      </trkpt>
      <trkpt lat="43.43235" lon="6.48955">
        <ele>118.1</ele>
        <time>2019-01-09T15:28:29Z</time>
      </trkpt>
      <trkpt lat="43.43243" lon="6.48959">
        <ele>118.5</ele>
        <time>2019-01-09T15:28:43Z</time>
      </trkpt>
      <trkpt lat="43.43251" lon="6.48952">
        <ele>118.8</ele>
        <time>2019-01-09T15:28:56Z</time>
      </trkpt>
      <trkpt lat="43.43257" lon="6.48942">
        <ele>119.1</ele>
        <time>2019-01-09T15:29:04Z</time>
      </trkpt>
      <trkpt lat="43.43265" lon="6.48935">
        <ele>119.2</ele>
        <time>2019-01-09T15:29:12Z</time>
      </trkpt>
      <trkpt lat="43.43273" lon="6.48928">
        <ele>119.4</ele>
        <time>2019-01-09T15:29:21Z</time>
      </trkpt>
      <trkpt lat="43.43281" lon="6.48921">
        <ele>119.8</ele>
        <time>2019-01-09T15:29:33Z</time>
      </trkpt>
      <trkpt lat="43.4329" lon="6.48921">
        <ele>120</ele>
        <time>2019-01-09T15:29:40Z</time>
      </trkpt>
      <trkpt lat="43.43299" lon="6.48927">
        <ele>120.2</ele>
        <time>2019-01-09T15:29:46Z</time>
      </trkpt>
      <trkpt lat="43.43309" lon="6.4893">
        <ele>120.3</ele>
        <time>2019-01-09T15:29:52Z</time>
      </trkpt>
      <trkpt lat="43.43316" lon="6.48937">
        <ele>120.5</ele>
        <time>2019-01-09T15:30:01Z</time>
      </trkpt>
      <trkpt lat="43.43324" lon="6.48944">
        <ele>120.7</ele>
        <time>2019-01-09T15:30:10Z</time>
      </trkpt>
      <trkpt lat="43.43332" lon="6.48951">
        <ele>120.9</ele>
        <time>2019-01-09T15:30:19Z</time>
      </trkpt>
      <trkpt lat="43.43338" lon="6.48961">
        <ele>121.2</ele>
        <time>2019-01-09T15:30:29Z</time>
      </trkpt>
      <trkpt lat="43.43347" lon="6.48967">
        <ele>121.4</ele>
        <time>2019-01-09T15:33:30Z</time>
      </trkpt>
      <trkpt lat="43.43351" lon="6.48979">
        <ele>121.4</ele>
        <time>2019-01-09T15:33:40Z</time>
      </trkpt>
      <trkpt lat="43.43353" lon="6.48992">
        <ele>121.3</ele>
        <time>2019-01-09T15:33:49Z</time>
      </trkpt>
      <trkpt lat="43.43354" lon="6.49006">
        <ele>121.3</ele>
        <time>2019-01-09T15:33:58Z</time>
      </trkpt>
      <trkpt lat="43.43355" lon="6.49018">
        <ele>121.3</ele>
        <time>2019-01-09T15:34:07Z</time>
      </trkpt>
      <trkpt lat="43.43354" lon="6.49031">
        <ele>121.3</ele>
        <time>2019-01-09T15:34:14Z</time>
      </trkpt>
      <trkpt lat="43.43354" lon="6.49045">
        <ele>121.5</ele>
        <time>2019-01-09T15:34:23Z</time>
      </trkpt>
      <trkpt lat="43.43352" lon="6.49057">
        <ele>122.1</ele>
        <time>2019-01-09T15:34:32Z</time>
      </trkpt>
      <trkpt lat="43.43354" lon="6.49071">
        <ele>122.6</ele>
        <time>2019-01-09T15:34:42Z</time>
      </trkpt>
      <trkpt lat="43.43356" lon="6.49083">
        <ele>123.2</ele>
        <time>2019-01-09T15:34:50Z</time>
      </trkpt>
      <trkpt lat="43.4336" lon="6.49095">
        <ele>123.7</ele>
        <time>2019-01-09T15:35:00Z</time>
      </trkpt>
      <trkpt lat="43.43362" lon="6.49109">
        <ele>124</ele>
        <time>2019-01-09T15:35:08Z</time>
      </trkpt>
      <trkpt lat="43.43362" lon="6.49121">
        <ele>124.4</ele>
        <time>2019-01-09T15:35:17Z</time>
      </trkpt>
      <trkpt lat="43.43365" lon="6.49134">
        <ele>124.9</ele>
        <time>2019-01-09T15:35:25Z</time>
      </trkpt>
      <trkpt lat="43.43367" lon="6.49146">
        <ele>125.5</ele>
        <time>2019-01-09T15:35:34Z</time>
      </trkpt>
      <trkpt lat="43.43369" lon="6.49158">
        <ele>125.9</ele>
        <time>2019-01-09T15:35:42Z</time>
      </trkpt>
      <trkpt lat="43.4337" lon="6.49172">
        <ele>126.3</ele>
        <time>2019-01-09T15:35:48Z</time>
      </trkpt>
      <trkpt lat="43.4337" lon="6.49185">
        <ele>126.7</ele>
        <time>2019-01-09T15:35:57Z</time>
      </trkpt>
      <trkpt lat="43.43372" lon="6.49197">
        <ele>127.2</ele>
        <time>2019-01-09T15:36:06Z</time>
      </trkpt>
      <trkpt lat="43.43371" lon="6.4921">
        <ele>127.7</ele>
        <time>2019-01-09T15:36:16Z</time>
      </trkpt>
      <trkpt lat="43.43369" lon="6.49223">
        <ele>128.3</ele>
        <time>2019-01-09T15:36:25Z</time>
      </trkpt>
      <trkpt lat="43.43367" lon="6.49235">
        <ele>129.1</ele>
        <time>2019-01-09T15:36:34Z</time>
      </trkpt>
      <trkpt lat="43.43367" lon="6.49248">
        <ele>129.6</ele>
        <time>2019-01-09T15:36:41Z</time>
      </trkpt>
      <trkpt lat="43.43365" lon="6.4926">
        <ele>130.2</ele>
        <time>2019-01-09T15:36:49Z</time>
      </trkpt>
      <trkpt lat="43.43363" lon="6.49272">
        <ele>130.8</ele>
        <time>2019-01-09T15:36:57Z</time>
      </trkpt>
      <trkpt lat="43.4336" lon="6.49285">
        <ele>131.4</ele>
        <time>2019-01-09T15:37:04Z</time>
      </trkpt>
      <trkpt lat="43.43356" lon="6.49297">
        <ele>132.1</ele>
        <time>2019-01-09T15:37:12Z</time>
      </trkpt>
      <trkpt lat="43.43352" lon="6.49309">
        <ele>132.8</ele>
        <time>2019-01-09T15:37:20Z</time>
      </trkpt>
      <trkpt lat="43.43347" lon="6.49319">
        <ele>133.4</ele>
        <time>2019-01-09T15:37:30Z</time>
      </trkpt>
      <trkpt lat="43.43344" lon="6.49333">
        <ele>134</ele>
        <time>2019-01-09T15:37:38Z</time>
      </trkpt>
      <trkpt lat="43.43339" lon="6.49344">
        <ele>134.6</ele>
        <time>2019-01-09T15:37:45Z</time>
      </trkpt>
      <trkpt lat="43.43331" lon="6.49352">
        <ele>135.1</ele>
        <time>2019-01-09T15:37:54Z</time>
      </trkpt>
      <trkpt lat="43.43327" lon="6.49363">
        <ele>135.9</ele>
        <time>2019-01-09T15:38:06Z</time>
      </trkpt>
      <trkpt lat="43.43329" lon="6.49376">
        <ele>136.6</ele>
        <time>2019-01-09T15:38:19Z</time>
      </trkpt>
      <trkpt lat="43.43338" lon="6.4938">
        <ele>137.5</ele>
        <time>2019-01-09T15:38:58Z</time>
      </trkpt>
      <trkpt lat="43.43346" lon="6.49385">
        <ele>137.6</ele>
        <time>2019-01-09T15:39:07Z</time>
      </trkpt>
      <trkpt lat="43.43353" lon="6.49394">
        <ele>137.8</ele>
        <time>2019-01-09T15:39:15Z</time>
      </trkpt>
      <trkpt lat="43.43357" lon="6.49406">
        <ele>138</ele>
        <time>2019-01-09T15:39:25Z</time>
      </trkpt>
      <trkpt lat="43.43364" lon="6.49413">
        <ele>138.1</ele>
        <time>2019-01-09T15:39:33Z</time>
      </trkpt>
      <trkpt lat="43.43371" lon="6.49423">
        <ele>138.3</ele>
        <time>2019-01-09T15:39:41Z</time>
      </trkpt>
      <trkpt lat="43.43379" lon="6.4943">
        <ele>138.4</ele>
        <time>2019-01-09T15:39:48Z</time>
      </trkpt>
      <trkpt lat="43.43383" lon="6.49443">
        <ele>138.5</ele>
        <time>2019-01-09T15:39:58Z</time>
      </trkpt>
      <trkpt lat="43.43382" lon="6.49456">
        <ele>138.4</ele>
        <time>2019-01-09T15:40:09Z</time>
      </trkpt>
      <trkpt lat="43.43383" lon="6.4947">
        <ele>138.3</ele>
        <time>2019-01-09T15:40:19Z</time>
      </trkpt>
      <trkpt lat="43.43382" lon="6.49484">
        <ele>138.3</ele>
        <time>2019-01-09T15:40:25Z</time>
      </trkpt>
      <trkpt lat="43.43382" lon="6.49498">
        <ele>138.3</ele>
        <time>2019-01-09T15:40:32Z</time>
      </trkpt>
      <trkpt lat="43.4338" lon="6.4951">
        <ele>138.2</ele>
        <time>2019-01-09T15:40:39Z</time>
      </trkpt>
      <trkpt lat="43.43381" lon="6.49522">
        <ele>138.3</ele>
        <time>2019-01-09T15:40:47Z</time>
      </trkpt>
      <trkpt lat="43.43382" lon="6.49536">
        <ele>138.4</ele>
        <time>2019-01-09T15:40:55Z</time>
      </trkpt>
      <trkpt lat="43.43383" lon="6.49548">
        <ele>138.5</ele>
        <time>2019-01-09T15:41:03Z</time>
      </trkpt>
      <trkpt lat="43.43384" lon="6.49561">
        <ele>138.6</ele>
        <time>2019-01-09T15:41:11Z</time>
      </trkpt>
      <trkpt lat="43.43388" lon="6.49573">
        <ele>138.7</ele>
        <time>2019-01-09T15:41:19Z</time>
      </trkpt>
      <trkpt lat="43.43384" lon="6.49585">
        <ele>138.8</ele>
        <time>2019-01-09T15:41:28Z</time>
      </trkpt>
      <trkpt lat="43.43384" lon="6.49598">
        <ele>138.8</ele>
        <time>2019-01-09T15:41:36Z</time>
      </trkpt>
      <trkpt lat="43.43384" lon="6.49611">
        <ele>138.9</ele>
        <time>2019-01-09T15:41:47Z</time>
      </trkpt>
      <trkpt lat="43.43387" lon="6.49625">
        <ele>138.9</ele>
        <time>2019-01-09T15:41:57Z</time>
      </trkpt>
      <trkpt lat="43.43389" lon="6.49638">
        <ele>138.9</ele>
        <time>2019-01-09T15:42:04Z</time>
      </trkpt>
      <trkpt lat="43.43387" lon="6.49652">
        <ele>138.9</ele>
        <time>2019-01-09T15:42:12Z</time>
      </trkpt>
      <trkpt lat="43.43382" lon="6.49662">
        <ele>138.9</ele>
        <time>2019-01-09T15:42:20Z</time>
      </trkpt>
      <trkpt lat="43.43375" lon="6.49671">
        <ele>138.9</ele>
        <time>2019-01-09T15:42:28Z</time>
      </trkpt>
      <trkpt lat="43.43367" lon="6.49678">
        <ele>139</ele>
        <time>2019-01-09T15:42:36Z</time>
      </trkpt>
      <trkpt lat="43.4336" lon="6.49685">
        <ele>139</ele>
        <time>2019-01-09T15:42:44Z</time>
      </trkpt>
      <trkpt lat="43.43352" lon="6.49694">
        <ele>139.1</ele>
        <time>2019-01-09T15:42:53Z</time>
      </trkpt>
      <trkpt lat="43.43345" lon="6.49702">
        <ele>139.2</ele>
        <time>2019-01-09T15:43:02Z</time>
      </trkpt>
      <trkpt lat="43.43337" lon="6.49709">
        <ele>139.5</ele>
        <time>2019-01-09T15:43:09Z</time>
      </trkpt>
      <trkpt lat="43.43329" lon="6.49716">
        <ele>139.7</ele>
        <time>2019-01-09T15:43:16Z</time>
      </trkpt>
      <trkpt lat="43.43322" lon="6.49723">
        <ele>139.9</ele>
        <time>2019-01-09T15:43:27Z</time>
      </trkpt>
      <trkpt lat="43.43313" lon="6.49728">
        <ele>140</ele>
        <time>2019-01-09T15:43:37Z</time>
      </trkpt>
      <trkpt lat="43.43304" lon="6.49735">
        <ele>140</ele>
        <time>2019-01-09T15:43:46Z</time>
      </trkpt>
      <trkpt lat="43.43296" lon="6.49744">
        <ele>140.1</ele>
        <time>2019-01-09T15:43:55Z</time>
      </trkpt>
      <trkpt lat="43.43291" lon="6.49754">
        <ele>140.2</ele>
        <time>2019-01-09T15:44:02Z</time>
      </trkpt>
      <trkpt lat="43.43286" lon="6.49766">
        <ele>140.6</ele>
        <time>2019-01-09T15:44:10Z</time>
      </trkpt>
      <trkpt lat="43.43282" lon="6.49778">
        <ele>140.8</ele>
        <time>2019-01-09T15:44:19Z</time>
      </trkpt>
      <trkpt lat="43.43279" lon="6.49792">
        <ele>141</ele>
        <time>2019-01-09T15:44:27Z</time>
      </trkpt>
      <trkpt lat="43.43278" lon="6.49804">
        <ele>141.1</ele>
        <time>2019-01-09T15:44:36Z</time>
      </trkpt>
      <trkpt lat="43.43275" lon="6.49816">
        <ele>141.3</ele>
        <time>2019-01-09T15:44:45Z</time>
      </trkpt>
      <trkpt lat="43.43273" lon="6.4983">
        <ele>141.6</ele>
        <time>2019-01-09T15:44:55Z</time>
      </trkpt>
      <trkpt lat="43.43271" lon="6.49843">
        <ele>141.9</ele>
        <time>2019-01-09T15:45:05Z</time>
      </trkpt>
      <trkpt lat="43.4327" lon="6.49856">
        <ele>142</ele>
        <time>2019-01-09T15:45:13Z</time>
      </trkpt>
      <trkpt lat="43.43271" lon="6.49868">
        <ele>142.1</ele>
        <time>2019-01-09T15:45:21Z</time>
      </trkpt>
      <trkpt lat="43.43268" lon="6.49881">
        <ele>142.2</ele>
        <time>2019-01-09T15:45:30Z</time>
      </trkpt>
      <trkpt lat="43.43265" lon="6.49895">
        <ele>141.9</ele>
        <time>2019-01-09T15:45:40Z</time>
      </trkpt>
      <trkpt lat="43.43258" lon="6.49906">
        <ele>141.7</ele>
        <time>2019-01-09T15:45:47Z</time>
      </trkpt>
      <trkpt lat="43.43253" lon="6.49917">
        <ele>141.4</ele>
        <time>2019-01-09T15:45:55Z</time>
      </trkpt>
      <trkpt lat="43.43252" lon="6.49929">
        <ele>140.8</ele>
        <time>2019-01-09T15:46:03Z</time>
      </trkpt>
      <trkpt lat="43.43253" lon="6.49942">
        <ele>140.2</ele>
        <time>2019-01-09T15:46:11Z</time>
      </trkpt>
      <trkpt lat="43.4326" lon="6.49951">
        <ele>139.5</ele>
        <time>2019-01-09T15:46:20Z</time>
      </trkpt>
      <trkpt lat="43.43269" lon="6.49954">
        <ele>138.8</ele>
        <time>2019-01-09T15:46:27Z</time>
      </trkpt>
      <trkpt lat="43.43279" lon="6.49953">
        <ele>138.1</ele>
        <time>2019-01-09T15:46:35Z</time>
      </trkpt>
      <trkpt lat="43.43288" lon="6.49954">
        <ele>137.8</ele>
        <time>2019-01-09T15:46:41Z</time>
      </trkpt>
      <trkpt lat="43.43298" lon="6.49955">
        <ele>137.5</ele>
        <time>2019-01-09T15:46:48Z</time>
      </trkpt>
      <trkpt lat="43.43308" lon="6.49954">
        <ele>136.9</ele>
        <time>2019-01-09T15:46:57Z</time>
      </trkpt>
      <trkpt lat="43.43318" lon="6.49951">
        <ele>136.4</ele>
        <time>2019-01-09T15:47:07Z</time>
      </trkpt>
      <trkpt lat="43.43327" lon="6.49951">
        <ele>135.9</ele>
        <time>2019-01-09T15:47:17Z</time>
      </trkpt>
      <trkpt lat="43.43336" lon="6.49946">
        <ele>135</ele>
        <time>2019-01-09T15:47:27Z</time>
      </trkpt>
      <trkpt lat="43.43345" lon="6.49946">
        <ele>134.4</ele>
        <time>2019-01-09T15:47:36Z</time>
      </trkpt>
      <trkpt lat="43.43354" lon="6.49946">
        <ele>133.8</ele>
        <time>2019-01-09T15:47:43Z</time>
      </trkpt>
      <trkpt lat="43.43364" lon="6.49945">
        <ele>133.2</ele>
        <time>2019-01-09T15:47:50Z</time>
      </trkpt>
      <trkpt lat="43.43373" lon="6.49945">
        <ele>132.4</ele>
        <time>2019-01-09T15:47:59Z</time>
      </trkpt>
      <trkpt lat="43.43382" lon="6.49948">
        <ele>131.7</ele>
        <time>2019-01-09T15:48:06Z</time>
      </trkpt>
      <trkpt lat="43.43391" lon="6.49951">
        <ele>130.8</ele>
        <time>2019-01-09T15:48:14Z</time>
      </trkpt>
      <trkpt lat="43.434" lon="6.49955">
        <ele>129.8</ele>
        <time>2019-01-09T15:48:23Z</time>
      </trkpt>
      <trkpt lat="43.43409" lon="6.49957">
        <ele>129.1</ele>
        <time>2019-01-09T15:48:31Z</time>
      </trkpt>
      <trkpt lat="43.43419" lon="6.49956">
        <ele>128.6</ele>
        <time>2019-01-09T15:48:40Z</time>
      </trkpt>
      <trkpt lat="43.43429" lon="6.49958">
        <ele>128.1</ele>
        <time>2019-01-09T15:48:49Z</time>
      </trkpt>
      <trkpt lat="43.43438" lon="6.49962">
        <ele>127.5</ele>
        <time>2019-01-09T15:48:56Z</time>
      </trkpt>
      <trkpt lat="43.43447" lon="6.49968">
        <ele>126.6</ele>
        <time>2019-01-09T15:49:04Z</time>
      </trkpt>
      <trkpt lat="43.43454" lon="6.49976">
        <ele>125.8</ele>
        <time>2019-01-09T15:49:12Z</time>
      </trkpt>
      <trkpt lat="43.43462" lon="6.49984">
        <ele>125</ele>
        <time>2019-01-09T15:49:20Z</time>
      </trkpt>
      <trkpt lat="43.43472" lon="6.49989">
        <ele>124.4</ele>
        <time>2019-01-09T15:49:29Z</time>
      </trkpt>
      <trkpt lat="43.43479" lon="6.49996">
        <ele>123.8</ele>
        <time>2019-01-09T15:49:37Z</time>
      </trkpt>
      <trkpt lat="43.43485" lon="6.50005">
        <ele>123.2</ele>
        <time>2019-01-09T15:49:45Z</time>
      </trkpt>
      <trkpt lat="43.43491" lon="6.50016">
        <ele>122.6</ele>
        <time>2019-01-09T15:49:53Z</time>
      </trkpt>
      <trkpt lat="43.43497" lon="6.50026">
        <ele>121.7</ele>
        <time>2019-01-09T15:50:02Z</time>
      </trkpt>
      <trkpt lat="43.43506" lon="6.50033">
        <ele>120.6</ele>
        <time>2019-01-09T15:50:11Z</time>
      </trkpt>
      <trkpt lat="43.43515" lon="6.50039">
        <ele>119.7</ele>
        <time>2019-01-09T15:50:19Z</time>
      </trkpt>
      <trkpt lat="43.43522" lon="6.50047">
        <ele>119.1</ele>
        <time>2019-01-09T15:50:26Z</time>
      </trkpt>
      <trkpt lat="43.43526" lon="6.50058">
        <ele>118.5</ele>
        <time>2019-01-09T15:50:34Z</time>
      </trkpt>
      <trkpt lat="43.43528" lon="6.50071">
        <ele>118</ele>
        <time>2019-01-09T15:50:42Z</time>
      </trkpt>
      <trkpt lat="43.4353" lon="6.50083">
        <ele>117.6</ele>
        <time>2019-01-09T15:50:51Z</time>
      </trkpt>
      <trkpt lat="43.4353" lon="6.50097">
        <ele>117.1</ele>
        <time>2019-01-09T15:50:59Z</time>
      </trkpt>
      <trkpt lat="43.43537" lon="6.50107">
        <ele>116.4</ele>
        <time>2019-01-09T15:51:07Z</time>
      </trkpt>
      <trkpt lat="43.43545" lon="6.50114">
        <ele>115.6</ele>
        <time>2019-01-09T15:51:16Z</time>
      </trkpt>
      <trkpt lat="43.43552" lon="6.50123">
        <ele>115</ele>
        <time>2019-01-09T15:51:24Z</time>
      </trkpt>
      <trkpt lat="43.43559" lon="6.50132">
        <ele>114.1</ele>
        <time>2019-01-09T15:51:32Z</time>
      </trkpt>
      <trkpt lat="43.43565" lon="6.50143">
        <ele>113.2</ele>
        <time>2019-01-09T15:51:41Z</time>
      </trkpt>
      <trkpt lat="43.43568" lon="6.50156">
        <ele>112.5</ele>
        <time>2019-01-09T15:51:50Z</time>
      </trkpt>
      <trkpt lat="43.43569" lon="6.50169">
        <ele>111.8</ele>
        <time>2019-01-09T15:51:58Z</time>
      </trkpt>
      <trkpt lat="43.4357" lon="6.50182">
        <ele>111.2</ele>
        <time>2019-01-09T15:52:05Z</time>
      </trkpt>
      <trkpt lat="43.43573" lon="6.50195">
        <ele>110.4</ele>
        <time>2019-01-09T15:52:14Z</time>
      </trkpt>
      <trkpt lat="43.43573" lon="6.50208">
        <ele>109.6</ele>
        <time>2019-01-09T15:52:23Z</time>
      </trkpt>
      <trkpt lat="43.43573" lon="6.50222">
        <ele>109</ele>
        <time>2019-01-09T15:52:30Z</time>
      </trkpt>
      <trkpt lat="43.43574" lon="6.50235">
        <ele>108.7</ele>
        <time>2019-01-09T15:52:38Z</time>
      </trkpt>
      <trkpt lat="43.43579" lon="6.50246">
        <ele>108.2</ele>
        <time>2019-01-09T15:52:46Z</time>
      </trkpt>
      <trkpt lat="43.43585" lon="6.50255">
        <ele>107.6</ele>
        <time>2019-01-09T15:52:54Z</time>
      </trkpt>
      <trkpt lat="43.43593" lon="6.50264">
        <ele>106.7</ele>
        <time>2019-01-09T15:53:03Z</time>
      </trkpt>
      <trkpt lat="43.43599" lon="6.50273">
        <ele>105.8</ele>
        <time>2019-01-09T15:53:11Z</time>
      </trkpt>
      <trkpt lat="43.43605" lon="6.50282">
        <ele>104.9</ele>
        <time>2019-01-09T15:53:19Z</time>
      </trkpt>
      <trkpt lat="43.43608" lon="6.50294">
        <ele>103.9</ele>
        <time>2019-01-09T15:53:28Z</time>
      </trkpt>
      <trkpt lat="43.43611" lon="6.50307">
        <ele>103.1</ele>
        <time>2019-01-09T15:53:35Z</time>
      </trkpt>
      <trkpt lat="43.43612" lon="6.50319">
        <ele>102.4</ele>
        <time>2019-01-09T15:53:42Z</time>
      </trkpt>
      <trkpt lat="43.43614" lon="6.50332">
        <ele>101.7</ele>
        <time>2019-01-09T15:53:50Z</time>
      </trkpt>
      <trkpt lat="43.43617" lon="6.50343">
        <ele>101.2</ele>
        <time>2019-01-09T15:53:58Z</time>
      </trkpt>
      <trkpt lat="43.43621" lon="6.50354">
        <ele>100.4</ele>
        <time>2019-01-09T15:54:06Z</time>
      </trkpt>
      <trkpt lat="43.43619" lon="6.50368">
        <ele>99.4</ele>
        <time>2019-01-09T15:54:14Z</time>
      </trkpt>
      <trkpt lat="43.43618" lon="6.50382">
        <ele>98.7</ele>
        <time>2019-01-09T15:54:21Z</time>
      </trkpt>
      <trkpt lat="43.43623" lon="6.50394">
        <ele>97.9</ele>
        <time>2019-01-09T15:54:29Z</time>
      </trkpt>
      <trkpt lat="43.43628" lon="6.50405">
        <ele>97</ele>
        <time>2019-01-09T15:54:36Z</time>
      </trkpt>
      <trkpt lat="43.43636" lon="6.50414">
        <ele>96.2</ele>
        <time>2019-01-09T15:54:44Z</time>
      </trkpt>
      <trkpt lat="43.43639" lon="6.50426">
        <ele>95.5</ele>
        <time>2019-01-09T15:54:52Z</time>
      </trkpt>
      <trkpt lat="43.43641" lon="6.50438">
        <ele>94.7</ele>
        <time>2019-01-09T15:55:00Z</time>
      </trkpt>
      <trkpt lat="43.43648" lon="6.50448">
        <ele>94.1</ele>
        <time>2019-01-09T15:55:07Z</time>
      </trkpt>
      <trkpt lat="43.43656" lon="6.50458">
        <ele>93.3</ele>
        <time>2019-01-09T15:55:14Z</time>
      </trkpt>
      <trkpt lat="43.43661" lon="6.50469">
        <ele>92.6</ele>
        <time>2019-01-09T15:55:22Z</time>
      </trkpt>
      <trkpt lat="43.43663" lon="6.50482">
        <ele>91.9</ele>
        <time>2019-01-09T15:55:31Z</time>
      </trkpt>
      <trkpt lat="43.43662" lon="6.50495">
        <ele>91.2</ele>
        <time>2019-01-09T15:55:39Z</time>
      </trkpt>
      <trkpt lat="43.43662" lon="6.50508">
        <ele>90.6</ele>
        <time>2019-01-09T15:55:47Z</time>
      </trkpt>
      <trkpt lat="43.43666" lon="6.50521">
        <ele>89.9</ele>
        <time>2019-01-09T15:55:56Z</time>
      </trkpt>
      <trkpt lat="43.43666" lon="6.50534">
        <ele>89.2</ele>
        <time>2019-01-09T15:56:04Z</time>
      </trkpt>
      <trkpt lat="43.43666" lon="6.50547">
        <ele>88.7</ele>
        <time>2019-01-09T15:56:13Z</time>
      </trkpt>
      <trkpt lat="43.43662" lon="6.50575">
        <ele>87</ele>
        <time>2019-01-09T15:56:31Z</time>
      </trkpt>
      <trkpt lat="43.43661" lon="6.50587">
        <ele>86.6</ele>
        <time>2019-01-09T15:56:38Z</time>
      </trkpt>
      <trkpt lat="43.43662" lon="6.506">
        <ele>85.8</ele>
        <time>2019-01-09T15:56:46Z</time>
      </trkpt>
      <trkpt lat="43.4366" lon="6.50614">
        <ele>85.1</ele>
        <time>2019-01-09T15:56:53Z</time>
      </trkpt>
      <trkpt lat="43.43658" lon="6.50626">
        <ele>84.5</ele>
        <time>2019-01-09T15:57:00Z</time>
      </trkpt>
      <trkpt lat="43.43655" lon="6.50638">
        <ele>83.7</ele>
        <time>2019-01-09T15:57:08Z</time>
      </trkpt>
      <trkpt lat="43.43654" lon="6.50651">
        <ele>83.3</ele>
        <time>2019-01-09T15:57:13Z</time>
      </trkpt>
      <trkpt lat="43.43651" lon="6.50663">
        <ele>82.8</ele>
        <time>2019-01-09T15:57:19Z</time>
      </trkpt>
      <trkpt lat="43.43647" lon="6.50675">
        <ele>82.4</ele>
        <time>2019-01-09T15:57:26Z</time>
      </trkpt>
      <trkpt lat="43.43642" lon="6.50687">
        <ele>81.9</ele>
        <time>2019-01-09T15:57:34Z</time>
      </trkpt>
      <trkpt lat="43.43634" lon="6.50693">
        <ele>81.3</ele>
        <time>2019-01-09T15:57:42Z</time>
      </trkpt>
      <trkpt lat="43.43625" lon="6.50701">
        <ele>80.4</ele>
        <time>2019-01-09T15:57:51Z</time>
      </trkpt>
      <trkpt lat="43.43622" lon="6.50714">
        <ele>79.7</ele>
        <time>2019-01-09T15:58:00Z</time>
      </trkpt>
      <trkpt lat="43.43624" lon="6.50727">
        <ele>79.2</ele>
        <time>2019-01-09T15:58:08Z</time>
      </trkpt>
      <trkpt lat="43.43631" lon="6.50737">
        <ele>78.6</ele>
        <time>2019-01-09T15:58:15Z</time>
      </trkpt>
      <trkpt lat="43.43636" lon="6.50748">
        <ele>77.8</ele>
        <time>2019-01-09T15:58:25Z</time>
      </trkpt>
      <trkpt lat="43.43639" lon="6.50761">
        <ele>77</ele>
        <time>2019-01-09T15:58:34Z</time>
      </trkpt>
      <trkpt lat="43.43641" lon="6.50774">
        <ele>76</ele>
        <time>2019-01-09T15:58:43Z</time>
      </trkpt>
      <trkpt lat="43.43639" lon="6.50787">
        <ele>75.4</ele>
        <time>2019-01-09T15:58:51Z</time>
      </trkpt>
      <trkpt lat="43.43634" lon="6.50799">
        <ele>74.4</ele>
        <time>2019-01-09T15:58:59Z</time>
      </trkpt>
      <trkpt lat="43.43629" lon="6.50811">
        <ele>73.5</ele>
        <time>2019-01-09T15:59:07Z</time>
      </trkpt>
      <trkpt lat="43.43623" lon="6.50823">
        <ele>72.7</ele>
        <time>2019-01-09T15:59:16Z</time>
      </trkpt>
      <trkpt lat="43.43629" lon="6.50834">
        <ele>71.7</ele>
        <time>2019-01-09T15:59:25Z</time>
      </trkpt>
      <trkpt lat="43.43637" lon="6.50841">
        <ele>70.5</ele>
        <time>2019-01-09T15:59:33Z</time>
      </trkpt>
      <trkpt lat="43.43642" lon="6.50852">
        <ele>69.7</ele>
        <time>2019-01-09T15:59:42Z</time>
      </trkpt>
      <trkpt lat="43.43646" lon="6.50864">
        <ele>68.9</ele>
        <time>2019-01-09T15:59:51Z</time>
      </trkpt>
      <trkpt lat="43.43647" lon="6.50878">
        <ele>67.9</ele>
        <time>2019-01-09T16:00:00Z</time>
      </trkpt>
      <trkpt lat="43.43644" lon="6.50892">
        <ele>67.2</ele>
        <time>2019-01-09T16:00:08Z</time>
      </trkpt>
      <trkpt lat="43.43639" lon="6.50902">
        <ele>66.5</ele>
        <time>2019-01-09T16:00:15Z</time>
      </trkpt>
      <trkpt lat="43.43636" lon="6.50915">
        <ele>65.8</ele>
        <time>2019-01-09T16:00:21Z</time>
      </trkpt>
      <trkpt lat="43.43638" lon="6.50929">
        <ele>64.8</ele>
        <time>2019-01-09T16:00:30Z</time>
      </trkpt>
      <trkpt lat="43.43644" lon="6.5094">
        <ele>64.1</ele>
        <time>2019-01-09T16:00:38Z</time>
      </trkpt>
      <trkpt lat="43.4365" lon="6.50953">
        <ele>63.5</ele>
        <time>2019-01-09T16:00:46Z</time>
      </trkpt>
      <trkpt lat="43.43654" lon="6.50965">
        <ele>62.9</ele>
        <time>2019-01-09T16:00:54Z</time>
      </trkpt>
      <trkpt lat="43.43655" lon="6.50978">
        <ele>62.2</ele>
        <time>2019-01-09T16:01:03Z</time>
      </trkpt>
      <trkpt lat="43.43658" lon="6.50991">
        <ele>61.5</ele>
        <time>2019-01-09T16:01:11Z</time>
      </trkpt>
      <trkpt lat="43.4366" lon="6.51003">
        <ele>60.5</ele>
        <time>2019-01-09T16:01:22Z</time>
      </trkpt>
      <trkpt lat="43.43666" lon="6.51015">
        <ele>59.7</ele>
        <time>2019-01-09T16:01:31Z</time>
      </trkpt>
      <trkpt lat="43.43668" lon="6.51027">
        <ele>59.1</ele>
        <time>2019-01-09T16:01:39Z</time>
      </trkpt>
      <trkpt lat="43.43662" lon="6.51037">
        <ele>58.4</ele>
        <time>2019-01-09T16:01:47Z</time>
      </trkpt>
      <trkpt lat="43.43654" lon="6.51044">
        <ele>58</ele>
        <time>2019-01-09T16:01:52Z</time>
      </trkpt>
      <trkpt lat="43.43644" lon="6.51044">
        <ele>57.2</ele>
        <time>2019-01-09T16:01:59Z</time>
      </trkpt>
      <trkpt lat="43.43635" lon="6.51042">
        <ele>56.4</ele>
        <time>2019-01-09T16:02:08Z</time>
      </trkpt>
      <trkpt lat="43.43625" lon="6.5104">
        <ele>55.7</ele>
        <time>2019-01-09T16:02:15Z</time>
      </trkpt>
      <trkpt lat="43.43617" lon="6.51034">
        <ele>55.1</ele>
        <time>2019-01-09T16:02:22Z</time>
      </trkpt>
      <trkpt lat="43.43609" lon="6.51026">
        <ele>54.5</ele>
        <time>2019-01-09T16:02:31Z</time>
      </trkpt>
      <trkpt lat="43.436" lon="6.51021">
        <ele>53.7</ele>
        <time>2019-01-09T16:02:39Z</time>
      </trkpt>
      <trkpt lat="43.43591" lon="6.51018">
        <ele>52.9</ele>
        <time>2019-01-09T16:02:46Z</time>
      </trkpt>
      <trkpt lat="43.43581" lon="6.51018">
        <ele>52.2</ele>
        <time>2019-01-09T16:02:54Z</time>
      </trkpt>
      <trkpt lat="43.43573" lon="6.51023">
        <ele>51.5</ele>
        <time>2019-01-09T16:03:02Z</time>
      </trkpt>
      <trkpt lat="43.43566" lon="6.51032">
        <ele>49.9</ele>
        <time>2019-01-09T16:03:15Z</time>
      </trkpt>
      <trkpt lat="43.43558" lon="6.51038">
        <ele>49</ele>
        <time>2019-01-09T16:03:24Z</time>
      </trkpt>
      <trkpt lat="43.4355" lon="6.51044">
        <ele>48.1</ele>
        <time>2019-01-09T16:03:32Z</time>
      </trkpt>
      <trkpt lat="43.43542" lon="6.51051">
        <ele>47.5</ele>
        <time>2019-01-09T16:03:39Z</time>
      </trkpt>
      <trkpt lat="43.43534" lon="6.51058">
        <ele>46.8</ele>
        <time>2019-01-09T16:03:48Z</time>
      </trkpt>
      <trkpt lat="43.43527" lon="6.51065">
        <ele>45.8</ele>
        <time>2019-01-09T16:03:59Z</time>
      </trkpt>
      <trkpt lat="43.43522" lon="6.51076">
        <ele>45</ele>
        <time>2019-01-09T16:04:08Z</time>
      </trkpt>
      <trkpt lat="43.43512" lon="6.51075">
        <ele>41.8</ele>
        <time>2019-01-09T16:10:06Z</time>
      </trkpt>
      <trkpt lat="43.43502" lon="6.51075">
        <ele>41.8</ele>
        <time>2019-01-09T16:10:20Z</time>
      </trkpt>
      <trkpt lat="43.43493" lon="6.51072">
        <ele>42</ele>
        <time>2019-01-09T16:10:30Z</time>
      </trkpt>
      <trkpt lat="43.43487" lon="6.51073">
        <ele>42.2</ele>
        <time>2019-01-09T16:10:37Z</time>
      </trkpt>
    </trkseg>
  </trk>
</gpx>